Time,TemperatureF,DewpointF,PressureIn,WindDirection,WindDirectionDegrees,WindSpeedMPH,WindSpeedGustMPH,Humidity,HourlyPrecipIn,Conditions,Clouds,dailyrainin,SolarRadiationWatts/m^2,SoftwareType,DateUTC
2013-02-05 00:00:00,21.5,13.6,29.96,WNW,284,0.0,0.0,71,0.00,,---,0.00,0.00,VWS V14.01,2013-02-05 05:00:00,
2013-02-05 00:05:00,21.7,13.4,29.96,WNW,284,0.0,0.0,70,0.00,,---,0.00,0.00,VWS V14.01,2013-02-05 05:05:00,
2013-02-05 00:10:00,21.7,12.4,29.96,WNW,284,0.0,0.0,67,0.00,,---,0.00,0.00,VWS V14.01,2013-02-05 05:10:00,
2013-02-05 00:15:00,21.7,12.8,29.96,WNW,284,0.0,0.0,68,0.00,,---,0.00,0.00,VWS V14.01,2013-02-05 05:15:00,
2013-02-05 00:20:00,21.8,14.5,29.96,WNW,284,0.0,0.0,73,0.00,,---,0.00,0.00,VWS V14.01,2013-02-05 05:20:00,
2013-02-05 00:21:00,21.8,14.5,29.96,WNW,284,0.0,0.0,73,0.00,,---,0.00,0.00,VWS V14.01,2013-02-05 05:21:00,
2013-02-05 00:25:00,22.0,14.1,29.95,WNW,284,0.0,0.0,71,0.00,,---,0.00,0.00,VWS V14.01,2013-02-05 05:25:00,
2013-02-05 00:26:00,22.0,14.1,29.95,WNW,284,0.0,0.0,71,0.00,,---,0.00,0.00,VWS V14.01,2013-02-05 05:26:00,
2013-02-05 00:30:00,22.2,14.6,29.95,WNW,284,0.0,0.0,72,0.00,,---,0.00,0.00,VWS V14.01,2013-02-05 05:30:00,
2013-02-05 00:31:00,22.2,14.6,29.95,WNW,284,0.0,0.0,72,0.00,,---,0.00,0.00,VWS V14.01,2013-02-05 05:31:00,
2013-02-05 00:35:00,22.3,15.0,29.95,WNW,284,0.0,0.0,73,0.00,,---,0.00,0.00,VWS V14.01,2013-02-05 05:35:00,
2013-02-05 00:36:00,22.3,15.0,29.95,WNW,284,0.0,0.0,73,0.00,,---,0.00,0.00,VWS V14.01,2013-02-05 05:36:00,
2013-02-05 00:40:00,22.3,14.7,29.95,WNW,284,0.0,0.0,72,0.00,,---,0.00,0.00,VWS V14.01,2013-02-05 05:40:00,
2013-02-05 00:41:00,22.3,14.7,29.95,WNW,284,0.0,0.0,72,0.00,,---,0.00,0.00,VWS V14.01,2013-02-05 05:41:00,
2013-02-05 00:45:00,22.3,14.7,29.95,WNW,284,0.0,0.0,72,0.00,,---,0.00,0.00,VWS V14.01,2013-02-05 05:45:00,
2013-02-05 00:46:00,22.4,14.8,29.95,WNW,284,0.0,0.0,72,0.00,,---,0.00,0.00,VWS V14.01,2013-02-05 05:46:00,
2013-02-05 00:50:00,22.4,13.8,29.95,WNW,284,0.0,0.0,69,0.00,,---,0.00,0.00,VWS V14.01,2013-02-05 05:50:00,
2013-02-05 00:51:00,22.4,14.1,29.95,WNW,284,0.0,0.0,70,0.00,,---,0.00,0.00,VWS V14.01,2013-02-05 05:51:00,
2013-02-05 00:55:00,22.5,13.6,29.95,WNW,284,0.0,0.0,68,0.00,,---,0.00,0.00,VWS V14.01,2013-02-05 05:55:00,
2013-02-05 00:56:00,22.5,14.2,29.95,WNW,284,0.0,0.0,70,0.00,,---,0.00,0.00,VWS V14.01,2013-02-05 05:56:00,
2013-02-05 01:00:00,22.6,15.3,29.95,WNW,284,0.0,0.0,73,0.00,,---,0.00,0.00,VWS V14.01,2013-02-05 06:00:00,
2013-02-05 01:01:00,22.6,15.3,29.95,WNW,284,0.0,0.0,73,0.00,,---,0.00,0.00,VWS V14.01,2013-02-05 06:01:00,
2013-02-05 01:06:00,22.6,14.3,29.95,WNW,284,0.0,0.0,70,0.00,,---,0.00,0.00,VWS V14.01,2013-02-05 06:06:00,
2013-02-05 01:11:00,22.6,14.9,29.95,WNW,284,0.0,0.0,72,0.00,,---,0.00,0.00,VWS V14.01,2013-02-05 06:11:00,
2013-02-05 01:16:00,22.7,15.1,29.95,WNW,284,0.0,0.0,72,0.00,,---,0.00,0.00,VWS V14.01,2013-02-05 06:16:00,
2013-02-05 01:21:00,22.8,15.1,29.95,WNW,284,0.0,0.0,72,0.00,,---,0.00,0.00,VWS V14.01,2013-02-05 06:21:00,
2013-02-05 01:22:00,22.8,15.1,29.95,WNW,284,0.0,0.0,72,0.00,,---,0.00,0.00,VWS V14.01,2013-02-05 06:22:00,
2013-02-05 01:26:00,22.9,15.2,29.95,WNW,284,0.0,0.0,72,0.00,,---,0.00,0.00,VWS V14.01,2013-02-05 06:26:00,
2013-02-05 01:27:00,22.9,15.2,29.95,WNW,284,0.0,0.0,72,0.00,,---,0.00,0.00,VWS V14.01,2013-02-05 06:27:00,
2013-02-05 01:31:00,22.9,15.2,29.96,WNW,284,0.0,0.0,72,0.00,,---,0.00,0.00,VWS V14.01,2013-02-05 06:31:00,
2013-02-05 01:32:00,23.0,14.7,29.96,WNW,284,0.0,0.0,70,0.00,,---,0.00,0.00,VWS V14.01,2013-02-05 06:32:00,
2013-02-05 01:36:00,23.1,15.1,29.96,WNW,284,0.0,0.0,71,0.00,,---,0.00,0.00,VWS V14.01,2013-02-05 06:36:00,
2013-02-05 01:37:00,23.1,15.1,29.96,WNW,284,0.0,0.0,71,0.00,,---,0.00,0.00,VWS V14.01,2013-02-05 06:37:00,
2013-02-05 01:41:00,23.1,14.8,29.96,WNW,284,0.0,0.0,70,0.00,,---,0.00,0.00,VWS V14.01,2013-02-05 06:41:00,
2013-02-05 01:42:00,23.1,14.8,29.96,WNW,284,0.0,0.0,70,0.00,,---,0.00,0.00,VWS V14.01,2013-02-05 06:42:00,
2013-02-05 01:46:00,23.1,14.5,29.95,WNW,284,0.0,0.0,69,0.00,,---,0.00,0.00,VWS V14.01,2013-02-05 06:46:00,
2013-02-05 01:47:00,23.2,14.6,29.95,WNW,284,0.0,0.0,69,0.00,,---,0.00,0.00,VWS V14.01,2013-02-05 06:47:00,
2013-02-05 01:51:00,23.3,15.6,29.95,WNW,284,0.0,0.0,72,0.00,,---,0.00,0.00,VWS V14.01,2013-02-05 06:51:00,
2013-02-05 01:52:00,23.3,15.6,29.95,WNW,284,0.0,0.0,72,0.00,,---,0.00,0.00,VWS V14.01,2013-02-05 06:52:00,
2013-02-05 01:56:00,23.3,15.3,29.95,WNW,284,0.0,0.0,71,0.00,,---,0.00,0.00,VWS V14.01,2013-02-05 06:56:00,
2013-02-05 01:57:00,23.3,15.3,29.95,WNW,284,0.0,0.0,71,0.00,,---,0.00,0.00,VWS V14.01,2013-02-05 06:57:00,
2013-02-05 02:01:00,23.4,15.7,29.95,WNW,284,0.0,0.0,72,0.00,,---,0.00,0.00,VWS V14.01,2013-02-05 07:01:00,
2013-02-05 02:02:00,23.4,15.4,29.95,WNW,284,0.0,0.0,71,0.00,,---,0.00,0.00,VWS V14.01,2013-02-05 07:02:00,
2013-02-05 02:03:00,23.4,15.4,29.95,WNW,284,0.0,0.0,71,0.00,,---,0.00,0.00,VWS V14.01,2013-02-05 07:03:00,
2013-02-05 02:06:00,23.5,15.5,29.95,WNW,284,0.0,0.0,71,0.00,,---,0.00,0.00,VWS V14.01,2013-02-05 07:06:00,
2013-02-05 02:07:00,23.5,15.5,29.95,WNW,284,0.0,0.0,71,0.00,,---,0.00,0.00,VWS V14.01,2013-02-05 07:07:00,
2013-02-05 02:08:00,23.5,15.8,29.95,WNW,284,0.0,0.0,72,0.00,,---,0.00,0.00,VWS V14.01,2013-02-05 07:08:00,
2013-02-05 02:11:00,23.6,15.9,29.95,WNW,284,0.0,0.0,72,0.00,,---,0.00,0.00,VWS V14.01,2013-02-05 07:11:00,
2013-02-05 02:12:00,23.5,15.5,29.95,WNW,284,0.0,0.0,71,0.00,,---,0.00,0.00,VWS V14.01,2013-02-05 07:12:00,
2013-02-05 02:13:00,23.5,15.5,29.95,WNW,284,0.0,0.0,71,0.00,,---,0.00,0.00,VWS V14.01,2013-02-05 07:13:00,
2013-02-05 02:16:00,23.6,15.6,29.95,WNW,284,0.0,0.0,71,0.00,,---,0.00,0.00,VWS V14.01,2013-02-05 07:16:00,
2013-02-05 02:17:00,23.6,15.3,29.95,WNW,284,0.0,0.0,70,0.00,,---,0.00,0.00,VWS V14.01,2013-02-05 07:17:00,
2013-02-05 02:18:00,23.6,15.3,29.95,WNW,284,0.0,0.0,70,0.00,,---,0.00,0.00,VWS V14.01,2013-02-05 07:18:00,
2013-02-05 02:22:00,23.6,16.2,29.95,WNW,284,0.0,0.0,73,0.00,,---,0.00,0.00,VWS V14.01,2013-02-05 07:22:00,
2013-02-05 02:23:00,23.6,16.2,29.95,WNW,284,0.0,0.0,73,0.00,,---,0.00,0.00,VWS V14.01,2013-02-05 07:23:00,
2013-02-05 02:27:00,23.6,15.9,29.95,WNW,284,0.0,0.0,72,0.00,,---,0.00,0.00,VWS V14.01,2013-02-05 07:27:00,
2013-02-05 02:28:00,23.6,15.6,29.95,WNW,284,0.0,0.0,71,0.00,,---,0.00,0.00,VWS V14.01,2013-02-05 07:28:00,
2013-02-05 02:32:00,23.6,16.2,29.95,WNW,284,0.0,0.0,73,0.00,,---,0.00,0.00,VWS V14.01,2013-02-05 07:32:00,
2013-02-05 02:33:00,23.6,16.2,29.95,WNW,284,0.0,0.0,73,0.00,,---,0.00,0.00,VWS V14.01,2013-02-05 07:33:00,
2013-02-05 02:37:00,23.6,16.2,29.95,WNW,284,0.0,0.0,73,0.00,,---,0.00,0.00,VWS V14.01,2013-02-05 07:37:00,
2013-02-05 02:38:00,23.6,16.2,29.95,WNW,284,0.0,0.0,73,0.00,,---,0.00,0.00,VWS V14.01,2013-02-05 07:38:00,
2013-02-05 02:42:00,23.6,16.5,29.95,WNW,284,0.0,0.0,74,0.00,,---,0.00,0.00,VWS V14.01,2013-02-05 07:42:00,
2013-02-05 02:43:00,23.6,16.5,29.95,WNW,284,0.0,0.0,74,0.00,,---,0.00,0.00,VWS V14.01,2013-02-05 07:43:00,
2013-02-05 02:47:00,23.6,16.9,29.95,WNW,284,0.0,0.0,75,0.00,,---,0.00,0.00,VWS V14.01,2013-02-05 07:47:00,
2013-02-05 02:48:00,23.6,16.5,29.95,WNW,284,0.0,0.0,74,0.00,,---,0.00,0.00,VWS V14.01,2013-02-05 07:48:00,
2013-02-05 02:49:00,23.5,16.5,29.95,WNW,284,0.0,0.0,74,0.00,,---,0.00,0.00,VWS V14.01,2013-02-05 07:49:00,
2013-02-05 02:53:00,23.5,16.5,29.95,WNW,284,0.0,0.0,74,0.00,,---,0.00,0.00,VWS V14.01,2013-02-05 07:53:00,
2013-02-05 02:54:00,23.5,16.5,29.95,WNW,284,0.0,0.0,74,0.00,,---,0.00,0.00,VWS V14.01,2013-02-05 07:54:00,
2013-02-05 02:58:00,23.5,17.1,29.94,WNW,284,0.0,0.0,76,0.00,,---,0.00,0.00,VWS V14.01,2013-02-05 07:58:00,
2013-02-05 02:59:00,23.6,17.2,29.94,WNW,284,0.0,0.0,76,0.00,,---,0.00,0.00,VWS V14.01,2013-02-05 07:59:00,
2013-02-05 03:03:00,23.6,16.9,29.95,WNW,284,0.0,0.0,75,0.00,,---,0.00,0.00,VWS V14.01,2013-02-05 08:03:00,
2013-02-05 03:04:00,23.6,16.9,29.95,WNW,284,0.0,0.0,75,0.00,,---,0.00,0.00,VWS V14.01,2013-02-05 08:04:00,
2013-02-05 03:08:00,23.6,16.9,29.94,WNW,284,0.0,0.0,75,0.00,,---,0.00,0.00,VWS V14.01,2013-02-05 08:08:00,
2013-02-05 03:09:00,23.7,17.3,29.95,WNW,284,0.0,0.0,76,0.00,,---,0.00,0.00,VWS V14.01,2013-02-05 08:09:00,
2013-02-05 03:13:00,23.6,16.9,29.95,WNW,284,0.0,0.0,75,0.00,,---,0.00,0.00,VWS V14.01,2013-02-05 08:13:00,
2013-02-05 03:14:00,23.6,16.9,29.95,WNW,284,0.0,0.0,75,0.00,,---,0.00,0.00,VWS V14.01,2013-02-05 08:14:00,
2013-02-05 03:18:00,23.6,16.5,29.95,WNW,284,0.0,0.0,74,0.00,,---,0.00,0.00,VWS V14.01,2013-02-05 08:18:00,
2013-02-05 03:19:00,23.6,16.5,29.94,WNW,284,0.0,0.0,74,0.00,,---,0.00,0.00,VWS V14.01,2013-02-05 08:19:00,
2013-02-05 03:20:00,23.6,16.9,29.95,WNW,284,0.0,0.0,75,0.00,,---,0.00,0.00,VWS V14.01,2013-02-05 08:20:00,
2013-02-05 03:23:00,23.6,17.2,29.94,WNW,284,0.0,0.0,76,0.00,,---,0.00,0.00,VWS V14.01,2013-02-05 08:23:00,
2013-02-05 03:24:00,23.7,17.3,29.94,WNW,284,0.0,0.0,76,0.00,,---,0.00,0.00,VWS V14.01,2013-02-05 08:24:00,
2013-02-05 03:25:00,23.7,17.3,29.94,WNW,284,0.0,0.0,76,0.00,,---,0.00,0.00,VWS V14.01,2013-02-05 08:25:00,
2013-02-05 03:28:00,23.6,16.9,29.94,WNW,284,0.0,0.0,75,0.00,,---,0.00,0.00,VWS V14.01,2013-02-05 08:28:00,
2013-02-05 03:29:00,23.6,17.2,29.94,WNW,284,0.0,0.0,76,0.00,,---,0.00,0.00,VWS V14.01,2013-02-05 08:29:00,
2013-02-05 03:30:00,23.6,17.5,29.94,WNW,284,0.0,0.0,77,0.00,,---,0.00,0.00,VWS V14.01,2013-02-05 08:30:00,
2013-02-05 03:33:00,23.6,17.2,29.94,WNW,284,0.0,0.0,76,0.00,,---,0.00,0.00,VWS V14.01,2013-02-05 08:33:00,
2013-02-05 03:34:00,23.6,17.2,29.94,WNW,284,0.0,0.0,76,0.00,,---,0.00,0.00,VWS V14.01,2013-02-05 08:34:00,
2013-02-05 03:35:00,23.6,17.2,29.94,WNW,284,0.0,0.0,76,0.00,,---,0.00,0.00,VWS V14.01,2013-02-05 08:35:00,
2013-02-05 03:38:00,23.6,17.5,29.94,WNW,284,0.0,0.0,77,0.00,,---,0.00,0.00,VWS V14.01,2013-02-05 08:38:00,
2013-02-05 03:39:00,23.6,17.5,29.94,WNW,284,0.0,0.0,77,0.00,,---,0.00,0.00,VWS V14.01,2013-02-05 08:39:00,
2013-02-05 03:40:00,23.6,17.8,29.94,WNW,284,0.0,0.0,78,0.00,,---,0.00,0.00,VWS V14.01,2013-02-05 08:40:00,
2013-02-05 03:44:00,23.6,17.8,29.94,WNW,284,0.0,0.0,78,0.00,,---,0.00,0.00,VWS V14.01,2013-02-05 08:44:00,
2013-02-05 03:45:00,23.6,17.8,29.94,WNW,284,0.0,0.0,78,0.00,,---,0.00,0.00,VWS V14.01,2013-02-05 08:45:00,
2013-02-05 03:49:00,23.5,17.4,29.94,WNW,284,0.0,0.0,77,0.00,,---,0.00,0.00,VWS V14.01,2013-02-05 08:49:00,
2013-02-05 03:50:00,23.5,17.7,29.94,WNW,284,0.0,0.0,78,0.00,,---,0.00,0.00,VWS V14.01,2013-02-05 08:50:00,
2013-02-05 03:54:00,23.3,17.5,29.94,WNW,284,0.0,0.0,78,0.00,,---,0.00,0.00,VWS V14.01,2013-02-05 08:54:00,
2013-02-05 03:55:00,23.4,17.6,29.94,WNW,284,0.0,0.0,78,0.00,,---,0.00,0.00,VWS V14.01,2013-02-05 08:55:00,
2013-02-05 03:59:00,23.3,17.5,29.94,WNW,284,0.0,0.0,78,0.00,,---,0.00,0.00,VWS V14.01,2013-02-05 08:59:00,
2013-02-05 04:00:00,23.3,17.5,29.94,WNW,284,0.0,0.0,78,0.00,,---,0.00,0.00,VWS V14.01,2013-02-05 09:00:00,
2013-02-05 04:04:00,23.3,17.8,29.94,WNW,284,0.0,0.0,79,0.00,,---,0.00,0.00,VWS V14.01,2013-02-05 09:04:00,
2013-02-05 04:05:00,23.3,17.8,29.94,WNW,284,0.0,0.0,79,0.00,,---,0.00,0.00,VWS V14.01,2013-02-05 09:05:00,
2013-02-05 04:09:00,23.3,17.8,29.95,WNW,284,0.0,0.0,79,0.00,,---,0.00,0.00,VWS V14.01,2013-02-05 09:09:00,
2013-02-05 04:10:00,23.3,17.8,29.94,WNW,284,0.0,0.0,79,0.00,,---,0.00,0.00,VWS V14.01,2013-02-05 09:10:00,
2013-02-05 04:14:00,23.2,18.0,29.94,WNW,284,0.0,0.0,80,0.00,,---,0.00,0.00,VWS V14.01,2013-02-05 09:14:00,
2013-02-05 04:15:00,23.3,18.1,29.94,WNW,284,0.0,0.0,80,0.00,,---,0.00,0.00,VWS V14.01,2013-02-05 09:15:00,
2013-02-05 04:16:00,23.2,18.0,29.94,WNW,284,0.0,0.0,80,0.00,,---,0.00,0.00,VWS V14.01,2013-02-05 09:16:00,
2013-02-05 04:19:00,23.2,18.2,29.94,WNW,284,0.0,0.0,81,0.00,,---,0.00,0.00,VWS V14.01,2013-02-05 09:19:00,
2013-02-05 04:20:00,23.3,18.3,29.94,WNW,284,0.0,0.0,81,0.00,,---,0.00,0.00,VWS V14.01,2013-02-05 09:20:00,
2013-02-05 04:21:00,23.3,18.3,29.94,WNW,284,0.0,0.0,81,0.00,,---,0.00,0.00,VWS V14.01,2013-02-05 09:21:00,
2013-02-05 04:24:00,23.2,18.0,29.93,WNW,284,0.0,0.0,80,0.00,,---,0.00,0.00,VWS V14.01,2013-02-05 09:24:00,
2013-02-05 04:25:00,23.2,18.0,29.93,WNW,284,0.0,0.0,80,0.00,,---,0.00,0.00,VWS V14.01,2013-02-05 09:25:00,
2013-02-05 04:26:00,23.2,18.0,29.93,WNW,284,0.0,0.0,80,0.00,,---,0.00,0.00,VWS V14.01,2013-02-05 09:26:00,
2013-02-05 04:29:00,23.1,17.9,29.93,WNW,284,0.0,0.0,80,0.00,,---,0.00,0.00,VWS V14.01,2013-02-05 09:29:00,
2013-02-05 04:30:00,23.1,17.9,29.93,WNW,284,0.0,0.0,80,0.00,,---,0.00,0.00,VWS V14.01,2013-02-05 09:30:00,
2013-02-05 04:31:00,23.1,17.9,29.93,WNW,284,0.0,0.0,80,0.00,,---,0.00,0.00,VWS V14.01,2013-02-05 09:31:00,
2013-02-05 04:34:00,23.1,18.1,29.93,WNW,284,0.0,0.0,81,0.00,,---,0.00,0.00,VWS V14.01,2013-02-05 09:34:00,
2013-02-05 04:35:00,23.1,18.1,29.93,WNW,284,0.0,0.0,81,0.00,,---,0.00,0.00,VWS V14.01,2013-02-05 09:35:00,
2013-02-05 04:36:00,23.1,18.1,29.93,WNW,284,0.0,0.0,81,0.00,,---,0.00,0.00,VWS V14.01,2013-02-05 09:36:00,
2013-02-05 04:39:00,23.1,17.9,29.93,WNW,284,0.0,0.0,80,0.00,,---,0.00,0.00,VWS V14.01,2013-02-05 09:39:00,
2013-02-05 04:40:00,23.1,18.1,29.93,WNW,284,0.0,0.0,81,0.00,,---,0.00,0.00,VWS V14.01,2013-02-05 09:40:00,
2013-02-05 04:41:00,23.1,18.1,29.93,WNW,284,0.0,0.0,81,0.00,,---,0.00,0.00,VWS V14.01,2013-02-05 09:41:00,
2013-02-05 04:44:00,23.0,18.0,29.94,WNW,284,0.0,0.0,81,0.00,,---,0.00,0.00,VWS V14.01,2013-02-05 09:44:00,
2013-02-05 04:45:00,23.1,18.1,29.94,WNW,284,0.0,0.0,81,0.00,,---,0.00,0.00,VWS V14.01,2013-02-05 09:45:00,
2013-02-05 04:46:00,23.1,18.1,29.94,WNW,284,0.0,0.0,81,0.00,,---,0.00,0.00,VWS V14.01,2013-02-05 09:46:00,
2013-02-05 04:49:00,23.1,18.1,29.93,WNW,284,0.0,0.0,81,0.00,,---,0.00,0.00,VWS V14.01,2013-02-05 09:49:00,
2013-02-05 04:51:00,23.1,18.1,29.93,WNW,284,0.0,0.0,81,0.00,,---,0.00,0.00,VWS V14.01,2013-02-05 09:51:00,
2013-02-05 04:54:00,23.0,18.0,29.93,WNW,284,0.0,0.0,81,0.00,,---,0.00,0.00,VWS V14.01,2013-02-05 09:54:00,
2013-02-05 04:56:00,23.0,18.0,29.94,WNW,284,0.0,0.0,81,0.00,,---,0.00,0.00,VWS V14.01,2013-02-05 09:56:00,
2013-02-05 04:59:00,23.0,18.3,29.94,WNW,284,0.0,0.0,82,0.00,,---,0.00,0.00,VWS V14.01,2013-02-05 09:59:00,
2013-02-05 05:01:00,23.0,18.0,29.94,WNW,284,0.0,0.0,81,0.00,,---,0.00,0.00,VWS V14.01,2013-02-05 10:01:00,
2013-02-05 05:04:00,23.0,18.3,29.94,WNW,284,0.0,0.0,82,0.00,,---,0.00,0.00,VWS V14.01,2013-02-05 10:04:00,
2013-02-05 05:06:00,23.0,18.3,29.94,WNW,284,0.0,0.0,82,0.00,,---,0.00,0.00,VWS V14.01,2013-02-05 10:06:00,
2013-02-05 05:10:00,23.0,18.3,29.93,WNW,284,0.0,0.0,82,0.00,,---,0.00,0.00,VWS V14.01,2013-02-05 10:10:00,
2013-02-05 05:11:00,23.0,18.3,29.93,WNW,284,0.0,0.0,82,0.00,,---,0.00,0.00,VWS V14.01,2013-02-05 10:11:00,
2013-02-05 05:12:00,23.0,18.3,29.93,WNW,284,0.0,0.0,82,0.00,,---,0.00,0.00,VWS V14.01,2013-02-05 10:12:00,
2013-02-05 05:15:00,23.0,18.3,29.93,WNW,284,0.0,0.0,82,0.00,,---,0.00,0.00,VWS V14.01,2013-02-05 10:15:00,
2013-02-05 05:16:00,23.0,18.3,29.93,WNW,284,0.0,0.0,82,0.00,,---,0.00,0.00,VWS V14.01,2013-02-05 10:16:00,
2013-02-05 05:17:00,23.1,18.7,29.92,WNW,284,0.0,0.0,83,0.00,,---,0.00,0.00,VWS V14.01,2013-02-05 10:17:00,
2013-02-05 05:20:00,23.0,18.6,29.92,WNW,284,0.0,0.0,83,0.00,,---,0.00,0.00,VWS V14.01,2013-02-05 10:20:00,
2013-02-05 05:21:00,23.0,18.3,29.93,WNW,284,0.0,0.0,82,0.00,,---,0.00,0.00,VWS V14.01,2013-02-05 10:21:00,
2013-02-05 05:22:00,23.0,18.3,29.93,WNW,284,0.0,0.0,82,0.00,,---,0.00,0.00,VWS V14.01,2013-02-05 10:22:00,
2013-02-05 05:25:00,23.0,18.6,29.93,WNW,298,0.0,2.0,83,0.00,,---,0.00,0.00,VWS V14.01,2013-02-05 10:25:00,
2013-02-05 05:26:00,23.0,18.6,29.93,WNW,298,0.0,2.0,83,0.00,,---,0.00,0.00,VWS V14.01,2013-02-05 10:26:00,
2013-02-05 05:27:00,23.0,18.6,29.93,WNW,298,0.0,2.0,83,0.00,,---,0.00,0.00,VWS V14.01,2013-02-05 10:27:00,
2013-02-05 05:30:00,23.0,18.6,29.94,WNW,298,0.0,2.0,83,0.00,,---,0.00,0.00,VWS V14.01,2013-02-05 10:30:00,
2013-02-05 05:31:00,23.0,18.6,29.94,WNW,298,0.0,2.0,83,0.00,,---,0.00,0.00,VWS V14.01,2013-02-05 10:31:00,
2013-02-05 05:32:00,23.0,18.6,29.94,WNW,298,0.0,0.0,83,0.00,,---,0.00,0.00,VWS V14.01,2013-02-05 10:32:00,
2013-02-05 05:35:00,23.0,18.6,29.94,WNW,298,0.0,0.0,83,0.00,,---,0.00,0.00,VWS V14.01,2013-02-05 10:35:00,
2013-02-05 05:36:00,23.1,18.7,29.94,WNW,298,0.0,0.0,83,0.00,,---,0.00,0.00,VWS V14.01,2013-02-05 10:36:00,
2013-02-05 05:37:00,23.0,18.6,29.94,WNW,298,0.0,0.0,83,0.00,,---,0.00,0.00,VWS V14.01,2013-02-05 10:37:00,
2013-02-05 05:40:00,23.1,18.7,29.94,WNW,298,0.0,0.0,83,0.00,,---,0.00,0.00,VWS V14.01,2013-02-05 10:40:00,
2013-02-05 05:41:00,23.1,18.7,29.94,WNW,298,0.0,0.0,83,0.00,,---,0.00,0.00,VWS V14.01,2013-02-05 10:41:00,
2013-02-05 05:42:00,23.1,18.7,29.94,WNW,298,0.0,0.0,83,0.00,,---,0.00,0.00,VWS V14.01,2013-02-05 10:42:00,
2013-02-05 05:45:00,23.1,19.0,29.94,WNW,298,0.0,0.0,84,0.00,,---,0.00,0.00,VWS V14.01,2013-02-05 10:45:00,
2013-02-05 05:46:00,23.1,19.0,29.94,WNW,298,0.0,0.0,84,0.00,,---,0.00,0.00,VWS V14.01,2013-02-05 10:46:00,
2013-02-05 05:47:00,23.1,19.0,29.94,WNW,298,0.0,0.0,84,0.00,,---,0.00,0.00,VWS V14.01,2013-02-05 10:47:00,
2013-02-05 05:51:00,23.1,19.0,29.94,WNW,298,0.0,0.0,84,0.00,,---,0.00,0.00,VWS V14.01,2013-02-05 10:51:00,
2013-02-05 05:52:00,23.1,19.0,29.94,WNW,298,0.0,0.0,84,0.00,,---,0.00,0.00,VWS V14.01,2013-02-05 10:52:00,
2013-02-05 05:56:00,23.1,18.7,29.93,NW,309,0.0,1.0,83,0.00,,---,0.00,0.00,VWS V14.01,2013-02-05 10:56:00,
2013-02-05 05:57:00,23.1,18.7,29.93,NW,309,0.0,1.0,83,0.00,,---,0.00,0.00,VWS V14.01,2013-02-05 10:57:00,
2013-02-05 06:01:00,23.1,18.7,29.93,NW,309,0.0,1.0,83,0.00,,---,0.00,0.00,VWS V14.01,2013-02-05 11:01:00,
2013-02-05 06:02:00,23.1,19.0,29.93,NW,309,0.0,0.0,84,0.00,,---,0.00,0.00,VWS V14.01,2013-02-05 11:02:00,
2013-02-05 06:06:00,23.1,19.0,29.93,NW,309,0.0,0.0,84,0.00,,---,0.00,0.00,VWS V14.01,2013-02-05 11:06:00,
2013-02-05 06:07:00,23.1,19.0,29.94,NW,309,0.0,0.0,84,0.00,,---,0.00,0.00,VWS V14.01,2013-02-05 11:07:00,
2013-02-05 06:08:00,23.1,19.0,29.94,NW,309,0.0,0.0,84,0.00,,---,0.00,0.00,VWS V14.01,2013-02-05 11:08:00,
2013-02-05 06:11:00,23.0,18.9,29.94,NW,309,0.0,0.0,84,0.00,,---,0.00,0.00,VWS V14.01,2013-02-05 11:11:00,
2013-02-05 06:12:00,23.0,18.9,29.94,NW,309,0.0,0.0,84,0.00,,---,0.00,0.00,VWS V14.01,2013-02-05 11:12:00,
2013-02-05 06:13:00,23.0,18.9,29.94,NW,309,0.0,0.0,84,0.00,,---,0.00,0.00,VWS V14.01,2013-02-05 11:13:00,
2013-02-05 06:16:00,23.0,18.9,29.94,NW,309,0.0,0.0,84,0.00,,---,0.00,0.00,VWS V14.01,2013-02-05 11:16:00,
2013-02-05 06:17:00,23.0,19.2,29.94,NW,309,0.0,0.0,85,0.00,,---,0.00,0.00,VWS V14.01,2013-02-05 11:17:00,
2013-02-05 06:18:00,23.0,19.2,29.94,NW,309,0.0,0.0,85,0.00,,---,0.00,0.00,VWS V14.01,2013-02-05 11:18:00,
2013-02-05 06:21:00,23.0,19.2,29.94,NW,309,0.0,0.0,85,0.00,,---,0.00,0.00,VWS V14.01,2013-02-05 11:21:00,
2013-02-05 06:22:00,23.0,19.2,29.94,NW,309,0.0,0.0,85,0.00,,---,0.00,0.00,VWS V14.01,2013-02-05 11:22:00,
2013-02-05 06:23:00,23.0,19.2,29.94,NW,309,0.0,0.0,85,0.00,,---,0.00,0.00,VWS V14.01,2013-02-05 11:23:00,
2013-02-05 06:26:00,23.0,19.2,29.94,NW,309,0.0,0.0,85,0.00,,---,0.00,0.00,VWS V14.01,2013-02-05 11:26:00,
2013-02-05 06:27:00,23.0,19.2,29.94,NW,309,0.0,0.0,85,0.00,,---,0.00,0.00,VWS V14.01,2013-02-05 11:27:00,
2013-02-05 06:28:00,23.0,19.2,29.94,NW,309,0.0,0.0,85,0.00,,---,0.00,0.00,VWS V14.01,2013-02-05 11:28:00,
2013-02-05 06:31:00,23.0,19.2,29.94,NW,309,0.0,0.0,85,0.00,,---,0.00,0.00,VWS V14.01,2013-02-05 11:31:00,
2013-02-05 06:32:00,23.0,19.5,29.94,NW,309,0.0,0.0,86,0.00,,---,0.00,0.00,VWS V14.01,2013-02-05 11:32:00,
2013-02-05 06:33:00,23.0,19.5,29.94,NW,309,0.0,0.0,86,0.00,,---,0.00,0.00,VWS V14.01,2013-02-05 11:33:00,
2013-02-05 06:36:00,23.0,19.5,29.94,NW,309,0.0,0.0,86,0.00,,---,0.00,0.00,VWS V14.01,2013-02-05 11:36:00,
2013-02-05 06:37:00,23.0,19.5,29.94,NW,309,0.0,0.0,86,0.00,,---,0.00,0.00,VWS V14.01,2013-02-05 11:37:00,
2013-02-05 06:38:00,23.0,19.5,29.94,NW,309,0.0,0.0,86,0.00,,---,0.00,0.00,VWS V14.01,2013-02-05 11:38:00,
2013-02-05 06:41:00,23.0,19.5,29.94,NW,309,0.0,0.0,86,0.00,,---,0.00,0.00,VWS V14.01,2013-02-05 11:41:00,
2013-02-05 06:43:00,22.9,19.4,29.94,NW,309,0.0,0.0,86,0.00,,---,0.00,0.00,VWS V14.01,2013-02-05 11:43:00,
2013-02-05 06:47:00,22.9,19.4,29.94,NW,309,0.0,0.0,86,0.00,,---,0.00,0.00,VWS V14.01,2013-02-05 11:47:00,
2013-02-05 06:48:00,22.9,19.4,29.95,NW,309,0.0,0.0,86,0.00,,---,0.00,0.00,VWS V14.01,2013-02-05 11:48:00,
2013-02-05 06:49:00,23.0,19.5,29.95,NW,309,0.0,0.0,86,0.00,,---,0.00,0.00,VWS V14.01,2013-02-05 11:49:00,
2013-02-05 06:52:00,22.9,19.4,29.95,NW,309,0.0,0.0,86,0.00,,---,0.00,0.00,VWS V14.01,2013-02-05 11:52:00,
2013-02-05 06:53:00,23.0,19.5,29.95,NW,309,0.0,0.0,86,0.00,,---,0.00,0.00,VWS V14.01,2013-02-05 11:53:00,
2013-02-05 06:54:00,22.9,19.4,29.95,NW,309,0.0,0.0,86,0.00,,---,0.00,0.00,VWS V14.01,2013-02-05 11:54:00,
2013-02-05 06:57:00,22.9,19.6,29.95,NW,309,0.0,0.0,87,0.00,,---,0.00,0.00,VWS V14.01,2013-02-05 11:57:00,
2013-02-05 06:58:00,22.9,19.4,29.95,NW,309,0.0,0.0,86,0.00,,---,0.00,0.00,VWS V14.01,2013-02-05 11:58:00,
2013-02-05 06:59:00,22.9,19.4,29.95,NW,309,0.0,0.0,86,0.00,,---,0.00,0.00,VWS V14.01,2013-02-05 11:59:00,
2013-02-05 07:02:00,22.9,19.4,29.95,NW,309,0.0,0.0,86,0.00,,---,0.00,0.00,VWS V14.01,2013-02-05 12:02:00,
2013-02-05 07:03:00,22.9,19.4,29.95,NW,309,0.0,0.0,86,0.00,,---,0.00,0.00,VWS V14.01,2013-02-05 12:03:00,
2013-02-05 07:04:00,22.9,19.6,29.95,NW,309,0.0,0.0,87,0.00,,---,0.00,0.00,VWS V14.01,2013-02-05 12:04:00,
2013-02-05 07:07:00,22.9,19.4,29.95,NW,309,0.0,0.0,86,0.00,,---,0.00,0.00,VWS V14.01,2013-02-05 12:07:00,
2013-02-05 07:08:00,23.0,19.5,29.95,NW,309,0.0,0.0,86,0.00,,---,0.00,0.00,VWS V14.01,2013-02-05 12:08:00,
2013-02-05 07:09:00,23.0,19.5,29.95,NW,309,0.0,0.0,86,0.00,,---,0.00,0.00,VWS V14.01,2013-02-05 12:09:00,
2013-02-05 07:10:00,23.0,19.5,29.95,NW,309,0.0,0.0,86,0.00,,---,0.00,0.00,VWS V14.01,2013-02-05 12:10:00,
2013-02-05 07:12:00,23.0,19.7,29.95,NW,309,0.0,0.0,87,0.00,,---,0.00,0.00,VWS V14.01,2013-02-05 12:12:00,
2013-02-05 07:13:00,23.0,19.5,29.95,NW,309,0.0,0.0,86,0.00,,---,0.00,0.00,VWS V14.01,2013-02-05 12:13:00,
2013-02-05 07:14:00,23.0,19.5,29.95,NW,309,0.0,0.0,86,0.00,,---,0.00,0.00,VWS V14.01,2013-02-05 12:14:00,
2013-02-05 07:16:00,23.0,19.5,29.95,NW,309,0.0,0.0,86,0.00,,---,0.00,0.00,VWS V14.01,2013-02-05 12:16:00,
2013-02-05 07:17:00,23.0,19.5,29.95,NW,309,0.0,0.0,86,0.00,,---,0.00,5.00,VWS V14.01,2013-02-05 12:17:00,
2013-02-05 07:18:00,23.0,19.5,29.95,NW,309,0.0,0.0,86,0.00,,---,0.00,5.00,VWS V14.01,2013-02-05 12:18:00,
2013-02-05 07:19:00,23.0,19.5,29.95,NW,309,0.0,0.0,86,0.00,,---,0.00,5.00,VWS V14.01,2013-02-05 12:19:00,
2013-02-05 07:21:00,23.0,19.5,29.95,NW,309,0.0,0.0,86,0.00,,---,0.00,5.00,VWS V14.01,2013-02-05 12:21:00,
2013-02-05 07:22:00,23.1,19.5,29.95,NW,309,0.0,0.0,86,0.00,,---,0.00,7.00,VWS V14.01,2013-02-05 12:22:00,
2013-02-05 07:23:00,23.0,19.5,29.95,NW,309,0.0,0.0,86,0.00,,---,0.00,7.00,VWS V14.01,2013-02-05 12:23:00,
2013-02-05 07:24:00,23.1,19.5,29.95,NW,309,0.0,0.0,86,0.00,,---,0.00,7.00,VWS V14.01,2013-02-05 12:24:00,
2013-02-05 07:26:00,23.1,19.5,29.95,NW,309,0.0,0.0,86,0.00,,---,0.00,9.00,VWS V14.01,2013-02-05 12:26:00,
2013-02-05 07:27:00,23.1,19.5,29.95,NW,309,0.0,0.0,86,0.00,,---,0.00,11.00,VWS V14.01,2013-02-05 12:27:00,
2013-02-05 07:28:00,23.1,19.5,29.95,NW,309,0.0,0.0,86,0.00,,---,0.00,11.00,VWS V14.01,2013-02-05 12:28:00,
2013-02-05 07:29:00,23.1,19.5,29.95,NW,309,0.0,0.0,86,0.00,,---,0.00,11.00,VWS V14.01,2013-02-05 12:29:00,
2013-02-05 07:31:00,23.1,19.5,29.95,NNW,339,0.0,2.0,86,0.00,,---,0.00,11.00,VWS V14.01,2013-02-05 12:31:00,
2013-02-05 07:32:00,23.1,19.5,29.95,NNW,339,0.0,0.0,86,0.00,,---,0.00,11.00,VWS V14.01,2013-02-05 12:32:00,
2013-02-05 07:33:00,23.1,19.5,29.95,NNW,339,0.0,0.0,86,0.00,,---,0.00,11.00,VWS V14.01,2013-02-05 12:33:00,
2013-02-05 07:34:00,23.1,19.5,29.96,NNW,339,1.0,1.0,86,0.00,,---,0.00,11.00,VWS V14.01,2013-02-05 12:34:00,
2013-02-05 07:36:00,23.1,19.5,29.96,NNW,339,0.0,1.0,86,0.00,,---,0.00,11.00,VWS V14.01,2013-02-05 12:36:00,
2013-02-05 07:37:00,23.2,19.6,29.96,NNW,339,0.0,1.0,86,0.00,,---,0.00,11.00,VWS V14.01,2013-02-05 12:37:00,
2013-02-05 07:38:00,23.2,19.6,29.96,NNW,339,0.0,1.0,86,0.00,,---,0.00,12.00,VWS V14.01,2013-02-05 12:38:00,
2013-02-05 07:39:00,23.2,19.6,29.96,NNW,339,0.0,1.0,86,0.00,,---,0.00,12.00,VWS V14.01,2013-02-05 12:39:00,
2013-02-05 07:41:00,23.2,19.6,29.96,NNW,339,0.0,1.0,86,0.00,,---,0.00,12.00,VWS V14.01,2013-02-05 12:41:00,
2013-02-05 07:42:00,23.3,19.7,29.96,NNW,339,0.0,0.0,86,0.00,,---,0.00,12.00,VWS V14.01,2013-02-05 12:42:00,
2013-02-05 07:44:00,23.3,19.7,29.96,NNW,339,0.0,0.0,86,0.00,,---,0.00,14.00,VWS V14.01,2013-02-05 12:44:00,
2013-02-05 07:46:00,23.3,19.7,29.96,NNW,339,0.0,0.0,86,0.00,,---,0.00,16.00,VWS V14.01,2013-02-05 12:46:00,
2013-02-05 07:48:00,23.3,19.7,29.96,NNW,339,0.0,0.0,86,0.00,,---,0.00,16.00,VWS V14.01,2013-02-05 12:48:00,
2013-02-05 07:49:00,23.3,19.7,29.96,NNW,339,1.0,1.0,86,0.00,,---,0.00,18.00,VWS V14.01,2013-02-05 12:49:00,
2013-02-05 07:50:00,23.3,19.7,29.96,NNW,339,0.0,1.0,86,0.00,,---,0.00,18.00,VWS V14.01,2013-02-05 12:50:00,
2013-02-05 07:51:00,23.4,19.8,29.96,NNW,339,0.0,1.0,86,0.00,,---,0.00,21.00,VWS V14.01,2013-02-05 12:51:00,
2013-02-05 07:53:00,23.3,19.7,29.96,NNW,339,0.0,0.0,86,0.00,,---,0.00,23.00,VWS V14.01,2013-02-05 12:53:00,
2013-02-05 07:55:00,23.4,19.8,29.96,NNW,339,0.0,0.0,86,0.00,,---,0.00,25.00,VWS V14.01,2013-02-05 12:55:00,
2013-02-05 07:56:00,23.4,19.8,29.96,NNW,339,0.0,0.0,86,0.00,,---,0.00,25.00,VWS V14.01,2013-02-05 12:56:00,
2013-02-05 07:58:00,23.4,19.8,29.96,NNW,339,0.0,0.0,86,0.00,,---,0.00,26.00,VWS V14.01,2013-02-05 12:58:00,
2013-02-05 07:59:00,23.4,19.8,29.96,NNW,339,0.0,0.0,86,0.00,,---,0.00,26.00,VWS V14.01,2013-02-05 12:59:00,
2013-02-05 08:00:00,23.4,20.1,29.96,NNW,340,0.0,1.0,87,0.00,,---,0.00,25.00,VWS V14.01,2013-02-05 13:00:00,
2013-02-05 08:02:00,23.5,19.9,29.96,NNW,340,0.0,0.0,86,0.00,,---,0.00,23.00,VWS V14.01,2013-02-05 13:02:00,
2013-02-05 08:04:00,23.5,19.9,29.96,NNW,340,0.0,0.0,86,0.00,,---,0.00,19.00,VWS V14.01,2013-02-05 13:04:00,
2013-02-05 08:05:00,23.5,20.2,29.97,NNW,340,0.0,0.0,87,0.00,,---,0.00,18.00,VWS V14.01,2013-02-05 13:05:00,
2013-02-05 08:07:00,23.6,20.3,29.97,NNW,340,0.0,0.0,87,0.00,,---,0.00,18.00,VWS V14.01,2013-02-05 13:07:00,
2013-02-05 08:09:00,23.6,20.0,29.97,NNW,340,0.0,1.0,86,0.00,,---,0.00,18.00,VWS V14.01,2013-02-05 13:09:00,
2013-02-05 08:10:00,23.6,20.0,29.97,NNW,340,0.0,1.0,86,0.00,,---,0.00,19.00,VWS V14.01,2013-02-05 13:10:00,
2013-02-05 08:12:00,23.6,20.0,29.97,NNW,340,0.0,1.0,86,0.00,,---,0.00,18.00,VWS V14.01,2013-02-05 13:12:00,
2013-02-05 08:14:00,23.6,20.0,29.97,NNW,340,0.0,1.0,86,0.00,,---,0.00,16.00,VWS V14.01,2013-02-05 13:14:00,
2013-02-05 08:15:00,23.6,20.0,29.97,NNW,340,0.0,1.0,86,0.00,,---,0.00,18.00,VWS V14.01,2013-02-05 13:15:00,
2013-02-05 08:17:00,23.6,20.0,29.97,NNW,340,0.0,1.0,86,0.00,,---,0.00,19.00,VWS V14.01,2013-02-05 13:17:00,
2013-02-05 08:19:00,23.6,20.0,29.97,NNW,340,0.0,1.0,86,0.00,,---,0.00,18.00,VWS V14.01,2013-02-05 13:19:00,
2013-02-05 08:20:00,23.7,20.1,29.97,NNW,340,0.0,1.0,86,0.00,,---,0.00,18.00,VWS V14.01,2013-02-05 13:20:00,
2013-02-05 08:22:00,23.7,20.1,29.97,NNW,340,1.0,1.0,86,0.00,,---,0.00,19.00,VWS V14.01,2013-02-05 13:22:00,
2013-02-05 08:24:00,23.7,20.1,29.97,NNW,340,1.0,2.0,86,0.00,,---,0.00,19.00,VWS V14.01,2013-02-05 13:24:00,
2013-02-05 08:25:00,23.7,20.1,29.97,NNW,340,1.0,2.0,86,0.00,,---,0.00,19.00,VWS V14.01,2013-02-05 13:25:00,
2013-02-05 08:27:00,23.7,20.1,29.97,North,349,1.0,2.0,86,0.00,,---,0.00,23.00,VWS V14.01,2013-02-05 13:27:00,
2013-02-05 08:29:00,23.7,20.1,29.97,North,349,0.0,2.0,86,0.00,,---,0.00,26.00,VWS V14.01,2013-02-05 13:29:00,
2013-02-05 08:31:00,23.7,20.1,29.97,North,349,0.0,2.0,86,0.00,,---,0.00,30.00,VWS V14.01,2013-02-05 13:31:00,
2013-02-05 08:32:00,23.8,20.2,29.97,North,349,0.0,0.0,86,0.00,,---,0.00,33.00,VWS V14.01,2013-02-05 13:32:00,
2013-02-05 08:34:00,23.8,20.2,29.97,North,349,0.0,0.0,86,0.00,,---,0.00,37.00,VWS V14.01,2013-02-05 13:34:00,
2013-02-05 08:36:00,23.8,20.2,29.97,North,349,0.0,0.0,86,0.00,,---,0.00,40.00,VWS V14.01,2013-02-05 13:36:00,
2013-02-05 08:37:00,23.8,20.0,29.97,North,349,0.0,1.0,85,0.00,,---,0.00,44.00,VWS V14.01,2013-02-05 13:37:00,
2013-02-05 08:39:00,23.8,20.0,29.97,North,355,1.0,1.0,85,0.00,,---,0.00,42.00,VWS V14.01,2013-02-05 13:39:00,
2013-02-05 08:41:00,23.8,20.0,29.97,North,355,0.0,1.0,85,0.00,,---,0.00,39.00,VWS V14.01,2013-02-05 13:41:00,
2013-02-05 08:42:00,23.8,20.0,29.97,North,355,1.0,1.0,85,0.00,,---,0.00,37.00,VWS V14.01,2013-02-05 13:42:00,
2013-02-05 08:44:00,23.8,20.0,29.97,North,355,0.0,1.0,85,0.00,,---,0.00,33.00,VWS V14.01,2013-02-05 13:44:00,
2013-02-05 08:46:00,23.9,20.1,29.97,North,355,0.0,1.0,85,0.00,,---,0.00,32.00,VWS V14.01,2013-02-05 13:46:00,
2013-02-05 08:48:00,23.9,20.1,29.97,North,355,0.0,1.0,85,0.00,,---,0.00,30.00,VWS V14.01,2013-02-05 13:48:00,
2013-02-05 08:49:00,23.9,19.8,29.97,North,355,0.0,2.0,84,0.00,,---,0.00,28.00,VWS V14.01,2013-02-05 13:49:00,
2013-02-05 08:50:00,23.9,19.8,29.97,North,355,1.0,2.0,84,0.00,,---,0.00,28.00,VWS V14.01,2013-02-05 13:50:00,
2013-02-05 08:51:00,23.9,19.8,29.97,North,355,0.0,2.0,84,0.00,,---,0.00,28.00,VWS V14.01,2013-02-05 13:51:00,
2013-02-05 08:53:00,23.9,20.1,29.97,North,355,0.0,0.0,85,0.00,,---,0.00,26.00,VWS V14.01,2013-02-05 13:53:00,
2013-02-05 08:54:00,23.9,20.1,29.97,North,355,0.0,0.0,85,0.00,,---,0.00,26.00,VWS V14.01,2013-02-05 13:54:00,
2013-02-05 08:55:00,23.9,20.1,29.97,North,355,0.0,0.0,85,0.00,,---,0.00,28.00,VWS V14.01,2013-02-05 13:55:00,
2013-02-05 08:56:00,24.0,20.1,29.97,North,355,0.0,0.0,85,0.00,,---,0.00,30.00,VWS V14.01,2013-02-05 13:56:00,
2013-02-05 08:58:00,24.0,20.1,29.97,North,355,0.0,0.0,85,0.00,,---,0.00,30.00,VWS V14.01,2013-02-05 13:58:00,
2013-02-05 09:00:00,24.0,19.9,29.97,North,355,0.0,0.0,84,0.00,,---,0.00,32.00,VWS V14.01,2013-02-05 14:00:00,
2013-02-05 09:01:00,24.0,20.1,29.97,North,355,0.0,0.0,85,0.00,,---,0.00,32.00,VWS V14.01,2013-02-05 14:01:00,
2013-02-05 09:03:00,24.0,19.9,29.97,North,355,0.0,0.0,84,0.00,,---,0.00,32.00,VWS V14.01,2013-02-05 14:03:00,
2013-02-05 09:05:00,24.1,20.0,29.97,NNE,30,0.0,1.0,84,0.00,,---,0.00,33.00,VWS V14.01,2013-02-05 14:05:00,
2013-02-05 09:06:00,24.1,20.0,29.97,NNE,30,0.0,1.0,84,0.00,,---,0.00,37.00,VWS V14.01,2013-02-05 14:06:00,
2013-02-05 09:08:00,24.1,20.0,29.97,NNE,30,0.0,1.0,84,0.00,,---,0.00,40.00,VWS V14.01,2013-02-05 14:08:00,
2013-02-05 09:10:00,24.1,20.0,29.98,NNE,30,0.0,1.0,84,0.00,,---,0.00,39.00,VWS V14.01,2013-02-05 14:10:00,
2013-02-05 09:11:00,24.2,20.1,29.98,NNE,30,0.0,1.0,84,0.00,,---,0.00,30.00,VWS V14.01,2013-02-05 14:11:00,
2013-02-05 09:13:00,24.2,20.1,29.98,NNE,30,0.0,0.0,84,0.00,,---,0.00,26.00,VWS V14.01,2013-02-05 14:13:00,
2013-02-05 09:15:00,24.2,20.1,29.98,NNE,30,0.0,0.0,84,0.00,,---,0.00,23.00,VWS V14.01,2013-02-05 14:15:00,
2013-02-05 09:16:00,24.2,20.1,29.98,NNE,24,1.0,2.0,84,0.00,,---,0.00,23.00,VWS V14.01,2013-02-05 14:16:00,
2013-02-05 09:18:00,24.2,20.1,29.98,NNE,24,0.0,2.0,84,0.00,,---,0.00,26.00,VWS V14.01,2013-02-05 14:18:00,
2013-02-05 09:20:00,24.2,20.1,29.97,NNE,24,0.0,2.0,84,0.00,,---,0.00,39.00,VWS V14.01,2013-02-05 14:20:00,
2013-02-05 09:21:00,24.2,20.1,29.97,NNE,24,0.0,2.0,84,0.00,,---,0.00,39.00,VWS V14.01,2013-02-05 14:21:00,
2013-02-05 09:23:00,24.2,20.1,29.97,NNE,24,0.0,0.0,84,0.00,,---,0.00,44.00,VWS V14.01,2013-02-05 14:23:00,
2013-02-05 09:25:00,24.2,20.1,29.97,NNE,24,0.0,0.0,84,0.00,,---,0.00,46.00,VWS V14.01,2013-02-05 14:25:00,
2013-02-05 09:26:00,24.2,20.1,29.97,NNE,24,0.0,0.0,84,0.00,,---,0.00,47.00,VWS V14.01,2013-02-05 14:26:00,
2013-02-05 09:28:00,24.2,20.1,29.97,NNE,24,0.0,0.0,84,0.00,,---,0.00,47.00,VWS V14.01,2013-02-05 14:28:00,
2013-02-05 09:30:00,24.2,20.1,29.97,NNE,24,0.0,0.0,84,0.00,,---,0.00,49.00,VWS V14.01,2013-02-05 14:30:00,
2013-02-05 09:31:00,24.3,20.2,29.97,NNE,24,0.0,1.0,84,0.00,,---,0.00,46.00,VWS V14.01,2013-02-05 14:31:00,
2013-02-05 09:33:00,24.2,20.1,29.98,NNE,24,0.0,0.0,84,0.00,,---,0.00,40.00,VWS V14.01,2013-02-05 14:33:00,
2013-02-05 09:35:00,24.3,20.2,29.97,NNE,24,0.0,0.0,84,0.00,,---,0.00,44.00,VWS V14.01,2013-02-05 14:35:00,
2013-02-05 09:36:00,24.3,20.2,29.98,NNE,24,0.0,0.0,84,0.00,,---,0.00,49.00,VWS V14.01,2013-02-05 14:36:00,
2013-02-05 09:38:00,24.3,20.2,29.98,NNE,19,0.0,2.0,84,0.00,,---,0.00,49.00,VWS V14.01,2013-02-05 14:38:00,
2013-02-05 09:40:00,24.3,20.2,29.98,NNW,346,2.0,3.0,84,0.00,,---,0.00,51.00,VWS V14.01,2013-02-05 14:40:00,
2013-02-05 09:41:00,24.3,20.2,29.98,NNW,333,0.0,0.0,84,0.00,,---,0.00,53.00,VWS V14.01,2013-02-05 14:41:00,
2013-02-05 09:44:00,24.3,20.2,29.98,NNW,342,0.0,3.0,84,0.00,,---,0.00,62.00,VWS V14.01,2013-02-05 14:44:00,
2013-02-05 09:45:00,24.3,20.2,29.98,NNW,342,0.0,3.0,84,0.00,,---,0.00,60.00,VWS V14.01,2013-02-05 14:45:00,
2013-02-05 09:47:00,24.3,20.2,29.98,NNW,344,0.0,3.0,84,0.00,,---,0.00,58.00,VWS V14.01,2013-02-05 14:47:00,
2013-02-05 09:49:00,24.3,20.2,29.97,NNW,344,0.0,3.0,84,0.00,,---,0.00,69.00,VWS V14.01,2013-02-05 14:49:00,
2013-02-05 09:50:00,24.3,20.2,29.97,NNW,344,0.0,3.0,84,0.00,,---,0.00,72.00,VWS V14.01,2013-02-05 14:50:00,
2013-02-05 09:52:00,24.4,20.3,29.97,NNW,344,1.0,1.0,84,0.00,,---,0.00,72.00,VWS V14.01,2013-02-05 14:52:00,
2013-02-05 09:54:00,24.4,20.3,29.98,NNW,344,0.0,1.0,84,0.00,,---,0.00,56.00,VWS V14.01,2013-02-05 14:54:00,
2013-02-05 09:55:00,24.4,20.3,29.98,NNW,344,0.0,1.0,84,0.00,,---,0.00,51.00,VWS V14.01,2013-02-05 14:55:00,
2013-02-05 09:57:00,24.4,20.3,29.98,NNW,344,1.0,2.0,84,0.00,,---,0.00,54.00,VWS V14.01,2013-02-05 14:57:00,
2013-02-05 09:59:00,24.4,20.0,29.98,NNW,344,0.0,2.0,83,0.00,,---,0.00,62.00,VWS V14.01,2013-02-05 14:59:00,
2013-02-05 10:00:00,24.5,20.1,29.98,NNW,344,0.0,2.0,83,0.00,,---,0.00,62.00,VWS V14.01,2013-02-05 15:00:00,
2013-02-05 10:02:00,24.5,20.1,29.98,NNW,344,0.0,1.0,83,0.00,,---,0.00,56.00,VWS V14.01,2013-02-05 15:02:00,
2013-02-05 10:04:00,24.5,20.1,29.98,NNW,344,0.0,1.0,83,0.00,,---,0.00,58.00,VWS V14.01,2013-02-05 15:04:00,
2013-02-05 10:05:00,24.5,20.1,29.98,NNW,346,2.0,3.0,83,0.00,,---,0.00,60.00,VWS V14.01,2013-02-05 15:05:00,
2013-02-05 10:06:00,24.5,20.1,29.98,NNW,346,1.0,3.0,83,0.00,,---,0.00,60.00,VWS V14.01,2013-02-05 15:06:00,
2013-02-05 10:07:00,24.5,20.1,29.98,NNE,19,1.0,3.0,83,0.00,,---,0.00,60.00,VWS V14.01,2013-02-05 15:07:00,
2013-02-05 10:09:00,24.6,20.2,29.98,NNE,21,0.0,3.0,83,0.00,,---,0.00,60.00,VWS V14.01,2013-02-05 15:09:00,
2013-02-05 10:10:00,24.6,20.2,29.98,NNE,21,0.0,3.0,83,0.00,,---,0.00,60.00,VWS V14.01,2013-02-05 15:10:00,
2013-02-05 10:11:00,24.6,20.2,29.98,NNE,21,0.0,3.0,83,0.00,,---,0.00,60.00,VWS V14.01,2013-02-05 15:11:00,
2013-02-05 10:12:00,24.6,20.2,29.98,NNE,21,0.0,0.0,83,0.00,,---,0.00,58.00,VWS V14.01,2013-02-05 15:12:00,
2013-02-05 10:14:00,24.6,20.2,29.98,NNE,22,0.0,1.0,83,0.00,,---,0.00,63.00,VWS V14.01,2013-02-05 15:14:00,
2013-02-05 10:16:00,24.7,20.3,29.99,NNE,22,0.0,1.0,83,0.00,,---,0.00,56.00,VWS V14.01,2013-02-05 15:16:00,
2013-02-05 10:17:00,24.7,20.3,29.99,NNE,22,0.0,1.0,83,0.00,,---,0.00,62.00,VWS V14.01,2013-02-05 15:17:00,
2013-02-05 10:19:00,24.7,20.3,29.99,NE,39,0.0,1.0,83,0.00,,---,0.00,63.00,VWS V14.01,2013-02-05 15:19:00,
2013-02-05 10:21:00,24.8,20.4,29.98,NE,39,0.0,1.0,83,0.00,,---,0.00,67.00,VWS V14.01,2013-02-05 15:21:00,
2013-02-05 10:22:00,24.8,20.4,29.98,NE,39,0.0,0.0,83,0.00,,---,0.00,65.00,VWS V14.01,2013-02-05 15:22:00,
2013-02-05 10:24:00,24.8,20.4,29.99,NE,39,1.0,1.0,83,0.00,,---,0.00,62.00,VWS V14.01,2013-02-05 15:24:00,
2013-02-05 10:26:00,24.8,20.4,29.98,NE,34,2.0,2.0,83,0.00,,---,0.00,63.00,VWS V14.01,2013-02-05 15:26:00,
2013-02-05 10:27:00,24.8,20.4,29.98,NNW,342,0.0,3.0,83,0.00,,---,0.00,63.00,VWS V14.01,2013-02-05 15:27:00,
2013-02-05 10:29:00,24.9,20.5,29.98,NNW,345,0.0,3.0,83,0.00,,---,0.00,65.00,VWS V14.01,2013-02-05 15:29:00,
2013-02-05 10:31:00,24.9,20.5,29.98,NNW,346,0.0,3.0,83,0.00,,---,0.00,62.00,VWS V14.01,2013-02-05 15:31:00,
2013-02-05 10:32:00,24.9,20.5,29.99,NNE,27,0.0,1.0,83,0.00,,---,0.00,65.00,VWS V14.01,2013-02-05 15:32:00,
2013-02-05 10:34:00,25.0,20.6,29.98,NNE,28,0.0,1.0,83,0.00,,---,0.00,63.00,VWS V14.01,2013-02-05 15:34:00,
2013-02-05 10:36:00,25.0,20.3,29.98,NNE,28,0.0,1.0,82,0.00,,---,0.00,65.00,VWS V14.01,2013-02-05 15:36:00,
2013-02-05 10:37:00,25.0,20.6,29.99,NNE,28,0.0,1.0,83,0.00,,---,0.00,63.00,VWS V14.01,2013-02-05 15:37:00,
2013-02-05 10:39:00,25.1,20.4,29.99,NNE,28,0.0,1.0,82,0.00,,---,0.00,62.00,VWS V14.01,2013-02-05 15:39:00,
2013-02-05 10:41:00,25.1,20.7,29.99,NNE,28,0.0,1.0,83,0.00,,---,0.00,60.00,VWS V14.01,2013-02-05 15:41:00,
2013-02-05 10:42:00,25.1,20.7,29.99,NNE,28,0.0,0.0,83,0.00,,---,0.00,58.00,VWS V14.01,2013-02-05 15:42:00,
2013-02-05 10:45:00,25.1,20.4,29.98,NNE,28,0.0,0.0,82,0.00,,---,0.00,69.00,VWS V14.01,2013-02-05 15:45:00,
2013-02-05 10:46:00,25.2,20.5,29.98,NNE,28,0.0,0.0,82,0.00,,---,0.00,84.00,VWS V14.01,2013-02-05 15:46:00,
2013-02-05 10:47:00,25.2,20.5,29.98,NNE,28,0.0,0.0,82,0.00,,---,0.00,83.00,VWS V14.01,2013-02-05 15:47:00,
2013-02-05 10:50:00,25.2,20.5,29.98,ENE,69,0.0,1.0,82,0.00,,---,0.00,76.00,VWS V14.01,2013-02-05 15:50:00,
2013-02-05 10:51:00,25.2,20.5,29.98,ENE,69,0.0,1.0,82,0.00,,---,0.00,81.00,VWS V14.01,2013-02-05 15:51:00,
2013-02-05 10:52:00,25.3,20.6,29.98,ENE,68,0.0,1.0,82,0.00,,---,0.00,79.00,VWS V14.01,2013-02-05 15:52:00,
2013-02-05 10:55:00,25.3,20.6,29.98,North,5,2.0,2.0,82,0.00,,---,0.00,86.00,VWS V14.01,2013-02-05 15:55:00,
2013-02-05 10:56:00,25.3,20.6,29.98,North,355,0.0,2.0,82,0.00,,---,0.00,83.00,VWS V14.01,2013-02-05 15:56:00,
2013-02-05 10:57:00,25.4,20.7,29.98,North,355,0.0,2.0,82,0.00,,---,0.00,79.00,VWS V14.01,2013-02-05 15:57:00,
2013-02-05 11:00:00,25.4,20.7,29.98,North,355,0.0,2.0,82,0.00,,---,0.00,83.00,VWS V14.01,2013-02-05 16:00:00,
2013-02-05 11:01:00,25.4,20.7,29.98,North,355,0.0,2.0,82,0.00,,---,0.00,84.00,VWS V14.01,2013-02-05 16:01:00,
2013-02-05 11:02:00,25.4,20.7,29.98,North,355,0.0,0.0,82,0.00,,---,0.00,86.00,VWS V14.01,2013-02-05 16:02:00,
2013-02-05 11:05:00,25.5,20.8,29.98,North,355,0.0,1.0,82,0.00,,---,0.00,76.00,VWS V14.01,2013-02-05 16:05:00,
2013-02-05 11:06:00,25.5,20.8,29.98,North,355,0.0,1.0,82,0.00,,---,0.00,84.00,VWS V14.01,2013-02-05 16:06:00,
2013-02-05 11:07:00,25.6,20.9,29.98,North,355,0.0,1.0,82,0.00,,---,0.00,81.00,VWS V14.01,2013-02-05 16:07:00,
2013-02-05 11:08:00,25.6,20.9,29.98,North,355,0.0,1.0,82,0.00,,---,0.00,76.00,VWS V14.01,2013-02-05 16:08:00,
2013-02-05 11:10:00,25.6,20.9,29.98,North,5,0.0,1.0,82,0.00,,---,0.00,79.00,VWS V14.01,2013-02-05 16:10:00,
2013-02-05 11:11:00,25.6,20.6,29.98,North,5,0.0,1.0,81,0.00,,---,0.00,83.00,VWS V14.01,2013-02-05 16:11:00,
2013-02-05 11:12:00,25.6,20.6,29.98,NNW,336,1.0,2.0,81,0.00,,---,0.00,81.00,VWS V14.01,2013-02-05 16:12:00,
2013-02-05 11:13:00,25.7,20.7,29.98,NNW,336,0.0,2.0,81,0.00,,---,0.00,83.00,VWS V14.01,2013-02-05 16:13:00,
2013-02-05 11:15:00,25.7,20.7,29.98,North,5,0.0,2.0,81,0.00,,---,0.00,86.00,VWS V14.01,2013-02-05 16:15:00,
2013-02-05 11:16:00,25.7,20.7,29.98,North,355,1.0,2.0,81,0.00,,---,0.00,86.00,VWS V14.01,2013-02-05 16:16:00,
2013-02-05 11:17:00,25.7,20.7,29.98,North,355,0.0,2.0,81,0.00,,---,0.00,90.00,VWS V14.01,2013-02-05 16:17:00,
2013-02-05 11:18:00,25.7,20.7,29.98,NE,51,0.0,2.0,81,0.00,,---,0.00,90.00,VWS V14.01,2013-02-05 16:18:00,
2013-02-05 11:20:00,25.7,20.7,29.98,NE,51,0.0,2.0,81,0.00,,---,0.00,86.00,VWS V14.01,2013-02-05 16:20:00,
2013-02-05 11:21:00,25.8,20.8,29.98,ENE,69,0.0,0.0,81,0.00,,---,0.00,88.00,VWS V14.01,2013-02-05 16:21:00,
2013-02-05 11:22:00,25.8,20.8,29.97,ENE,69,0.0,0.0,81,0.00,,---,0.00,88.00,VWS V14.01,2013-02-05 16:22:00,
2013-02-05 11:23:00,25.8,20.8,29.97,ENE,69,0.0,0.0,81,0.00,,---,0.00,86.00,VWS V14.01,2013-02-05 16:23:00,
2013-02-05 11:25:00,25.8,20.8,29.98,ENE,69,0.0,0.0,81,0.00,,---,0.00,86.00,VWS V14.01,2013-02-05 16:25:00,
2013-02-05 11:26:00,25.8,20.8,29.98,ENE,69,0.0,0.0,81,0.00,,---,0.00,91.00,VWS V14.01,2013-02-05 16:26:00,
2013-02-05 11:28:00,25.9,20.9,29.97,ENE,69,0.0,0.0,81,0.00,,---,0.00,81.00,VWS V14.01,2013-02-05 16:28:00,
2013-02-05 11:30:00,26.0,21.0,29.97,NE,37,1.0,1.0,81,0.00,,---,0.00,84.00,VWS V14.01,2013-02-05 16:30:00,
2013-02-05 11:31:00,26.0,20.7,29.97,NNE,13,0.0,0.0,80,0.00,,---,0.00,76.00,VWS V14.01,2013-02-05 16:31:00,
2013-02-05 11:33:00,26.0,20.7,29.97,NNE,13,0.0,0.0,80,0.00,,---,0.00,74.00,VWS V14.01,2013-02-05 16:33:00,
2013-02-05 11:35:00,26.0,20.7,29.97,NNE,13,0.0,0.0,80,0.00,,---,0.00,74.00,VWS V14.01,2013-02-05 16:35:00,
2013-02-05 11:37:00,26.0,20.7,29.97,NE,42,0.0,0.0,80,0.00,,---,0.00,74.00,VWS V14.01,2013-02-05 16:37:00,
2013-02-05 11:38:00,26.0,20.7,29.97,NE,42,0.0,0.0,80,0.00,,---,0.00,76.00,VWS V14.01,2013-02-05 16:38:00,
2013-02-05 11:40:00,26.1,20.8,29.97,NE,42,0.0,0.0,80,0.00,,---,0.00,70.00,VWS V14.01,2013-02-05 16:40:00,
2013-02-05 11:42:00,26.1,20.8,29.97,NE,42,0.0,0.0,80,0.00,,---,0.00,72.00,VWS V14.01,2013-02-05 16:42:00,
2013-02-05 11:43:00,26.1,20.8,29.97,NE,42,0.0,0.0,80,0.00,,---,0.00,72.00,VWS V14.01,2013-02-05 16:43:00,
2013-02-05 11:45:00,26.1,20.8,29.97,NNE,32,0.0,2.0,80,0.00,,---,0.00,76.00,VWS V14.01,2013-02-05 16:45:00,
2013-02-05 11:47:00,26.1,20.5,29.97,NNE,32,0.0,2.0,79,0.00,,---,0.00,79.00,VWS V14.01,2013-02-05 16:47:00,
2013-02-05 11:48:00,26.1,20.8,29.97,NNE,32,0.0,2.0,80,0.00,,---,0.00,79.00,VWS V14.01,2013-02-05 16:48:00,
2013-02-05 11:50:00,26.2,20.9,29.96,NNE,32,0.0,2.0,80,0.00,,---,0.00,83.00,VWS V14.01,2013-02-05 16:50:00,
2013-02-05 11:52:00,26.1,20.8,29.96,NNE,32,0.0,0.0,80,0.00,,---,0.00,81.00,VWS V14.01,2013-02-05 16:52:00,
2013-02-05 11:53:00,26.2,20.6,29.96,NNE,32,0.0,0.0,79,0.00,,---,0.00,76.00,VWS V14.01,2013-02-05 16:53:00,
2013-02-05 11:54:00,26.2,20.9,29.96,NNE,32,0.0,0.0,80,0.00,,---,0.00,70.00,VWS V14.01,2013-02-05 16:54:00,
2013-02-05 11:56:00,26.2,20.9,29.96,NNE,32,0.0,0.0,80,0.00,,---,0.00,72.00,VWS V14.01,2013-02-05 16:56:00,
2013-02-05 11:57:00,26.3,21.0,29.96,NNE,32,0.0,1.0,80,0.00,,---,0.00,76.00,VWS V14.01,2013-02-05 16:57:00,
2013-02-05 11:58:00,26.2,20.6,29.96,NNE,32,0.0,1.0,79,0.00,,---,0.00,77.00,VWS V14.01,2013-02-05 16:58:00,
2013-02-05 11:59:00,26.3,20.7,29.96,NNE,32,0.0,1.0,79,0.00,,---,0.00,79.00,VWS V14.01,2013-02-05 16:59:00,
2013-02-05 12:01:00,26.3,20.7,29.96,NE,34,0.0,1.0,79,0.00,,---,0.00,79.00,VWS V14.01,2013-02-05 17:01:00,
2013-02-05 12:02:00,26.3,20.7,29.96,NE,34,1.0,1.0,79,0.00,,---,0.00,81.00,VWS V14.01,2013-02-05 17:02:00,
2013-02-05 12:03:00,26.3,20.7,29.96,NNE,33,0.0,1.0,79,0.00,,---,0.00,81.00,VWS V14.01,2013-02-05 17:03:00,
2013-02-05 12:04:00,26.3,20.7,29.96,NNE,33,0.0,1.0,79,0.00,,---,0.00,79.00,VWS V14.01,2013-02-05 17:04:00,
2013-02-05 12:06:00,26.3,20.7,29.95,ENE,67,0.0,1.0,79,0.00,,---,0.00,77.00,VWS V14.01,2013-02-05 17:06:00,
2013-02-05 12:07:00,26.3,20.7,29.96,ENE,65,0.0,1.0,79,0.00,,---,0.00,77.00,VWS V14.01,2013-02-05 17:07:00,
2013-02-05 12:08:00,26.3,20.7,29.96,ENE,65,0.0,1.0,79,0.00,,---,0.00,76.00,VWS V14.01,2013-02-05 17:08:00,
2013-02-05 12:09:00,26.4,20.8,29.96,ENE,65,0.0,1.0,79,0.00,,---,0.00,76.00,VWS V14.01,2013-02-05 17:09:00,
2013-02-05 12:11:00,26.4,20.8,29.96,ENE,65,0.0,1.0,79,0.00,,---,0.00,76.00,VWS V14.01,2013-02-05 17:11:00,
2013-02-05 12:12:00,26.4,20.8,29.96,ENE,65,0.0,0.0,79,0.00,,---,0.00,79.00,VWS V14.01,2013-02-05 17:12:00,
2013-02-05 12:13:00,26.4,20.8,29.96,ENE,65,0.0,0.0,79,0.00,,---,0.00,81.00,VWS V14.01,2013-02-05 17:13:00,
2013-02-05 12:14:00,26.4,20.8,29.95,ENE,65,0.0,0.0,79,0.00,,---,0.00,84.00,VWS V14.01,2013-02-05 17:14:00,
2013-02-05 12:16:00,26.4,20.8,29.95,ENE,65,0.0,0.0,79,0.00,,---,0.00,84.00,VWS V14.01,2013-02-05 17:16:00,
2013-02-05 12:17:00,26.5,21.2,29.95,ENE,65,0.0,1.0,80,0.00,,---,0.00,84.00,VWS V14.01,2013-02-05 17:17:00,
2013-02-05 12:18:00,26.5,21.2,29.95,ENE,65,0.0,1.0,80,0.00,,---,0.00,84.00,VWS V14.01,2013-02-05 17:18:00,
2013-02-05 12:19:00,26.5,21.2,29.95,ENE,65,0.0,1.0,80,0.00,,---,0.00,86.00,VWS V14.01,2013-02-05 17:19:00,
2013-02-05 12:21:00,26.5,20.9,29.95,NE,41,0.0,2.0,79,0.00,,---,0.00,86.00,VWS V14.01,2013-02-05 17:21:00,
2013-02-05 12:22:00,26.5,20.9,29.95,NE,41,0.0,0.0,79,0.00,,---,0.00,81.00,VWS V14.01,2013-02-05 17:22:00,
2013-02-05 12:23:00,26.5,20.9,29.95,NE,41,0.0,0.0,79,0.00,,---,0.00,81.00,VWS V14.01,2013-02-05 17:23:00,
2013-02-05 12:24:00,26.5,20.9,29.95,NE,41,0.0,0.0,79,0.00,,---,0.00,81.00,VWS V14.01,2013-02-05 17:24:00,
2013-02-05 12:26:00,26.5,20.9,29.95,NE,41,0.0,0.0,79,0.00,,---,0.00,81.00,VWS V14.01,2013-02-05 17:26:00,
2013-02-05 12:27:00,26.6,21.3,29.95,NNE,25,0.0,1.0,80,0.00,,---,0.00,76.00,VWS V14.01,2013-02-05 17:27:00,
2013-02-05 12:28:00,26.5,20.9,29.95,NNE,25,0.0,1.0,79,0.00,,---,0.00,72.00,VWS V14.01,2013-02-05 17:28:00,
2013-02-05 12:29:00,26.6,21.0,29.95,NNE,25,0.0,1.0,79,0.00,,---,0.00,69.00,VWS V14.01,2013-02-05 17:29:00,
2013-02-05 12:31:00,26.6,21.0,29.95,NNE,25,0.0,1.0,79,0.00,,---,0.00,62.00,VWS V14.01,2013-02-05 17:31:00,
2013-02-05 12:33:00,26.6,21.3,29.95,NNE,25,0.0,0.0,80,0.00,,---,0.00,58.00,VWS V14.01,2013-02-05 17:33:00,
2013-02-05 12:34:00,26.6,21.0,29.95,NNE,25,0.0,0.0,79,0.00,,---,0.00,56.00,VWS V14.01,2013-02-05 17:34:00,
2013-02-05 12:36:00,26.7,21.1,29.95,NNE,25,1.0,1.0,79,0.00,,---,0.00,54.00,VWS V14.01,2013-02-05 17:36:00,
2013-02-05 12:38:00,26.7,21.1,29.95,NNE,25,0.0,1.0,79,0.00,,---,0.00,56.00,VWS V14.01,2013-02-05 17:38:00,
2013-02-05 12:39:00,26.7,21.1,29.95,NNE,25,0.0,1.0,79,0.00,,---,0.00,56.00,VWS V14.01,2013-02-05 17:39:00,
2013-02-05 12:41:00,26.7,21.1,29.95,NNE,28,0.0,1.0,79,0.00,,---,0.00,62.00,VWS V14.01,2013-02-05 17:41:00,
2013-02-05 12:43:00,26.7,21.1,29.95,NNE,28,0.0,0.0,79,0.00,,---,0.00,70.00,VWS V14.01,2013-02-05 17:43:00,
2013-02-05 12:44:00,26.7,21.1,29.95,NNE,28,0.0,0.0,79,0.00,,---,0.00,70.00,VWS V14.01,2013-02-05 17:44:00,
2013-02-05 12:46:00,26.7,21.1,29.95,NNE,28,0.0,0.0,79,0.00,,---,0.00,69.00,VWS V14.01,2013-02-05 17:46:00,
2013-02-05 12:48:00,26.8,21.2,29.95,East,86,0.0,0.0,79,0.00,,---,0.00,69.00,VWS V14.01,2013-02-05 17:48:00,
2013-02-05 12:49:00,26.8,21.2,29.95,East,86,0.0,0.0,79,0.00,,---,0.00,69.00,VWS V14.01,2013-02-05 17:49:00,
2013-02-05 12:50:00,26.9,21.3,29.95,East,86,0.0,0.0,79,0.00,,---,0.00,70.00,VWS V14.01,2013-02-05 17:50:00,
2013-02-05 12:51:00,26.9,21.6,29.95,East,86,0.0,0.0,80,0.00,,---,0.00,76.00,VWS V14.01,2013-02-05 17:51:00,
2013-02-05 12:53:00,26.9,21.3,29.95,East,86,0.0,0.0,79,0.00,,---,0.00,72.00,VWS V14.01,2013-02-05 17:53:00,
2013-02-05 12:54:00,26.9,21.3,29.95,East,86,0.0,0.0,79,0.00,,---,0.00,72.00,VWS V14.01,2013-02-05 17:54:00,
2013-02-05 12:55:00,26.9,21.3,29.95,East,86,0.0,0.0,79,0.00,,---,0.00,69.00,VWS V14.01,2013-02-05 17:55:00,
2013-02-05 12:56:00,26.9,21.3,29.95,East,86,0.0,0.0,79,0.00,,---,0.00,67.00,VWS V14.01,2013-02-05 17:56:00,
2013-02-05 12:58:00,27.0,21.4,29.95,East,86,0.0,0.0,79,0.00,,---,0.00,67.00,VWS V14.01,2013-02-05 17:58:00,
2013-02-05 12:59:00,27.0,21.4,29.95,East,86,0.0,0.0,79,0.00,,---,0.00,67.00,VWS V14.01,2013-02-05 17:59:00,
2013-02-05 13:00:00,27.0,21.4,29.95,East,86,0.0,0.0,79,0.00,,---,0.00,62.00,VWS V14.01,2013-02-05 18:00:00,
2013-02-05 13:01:00,27.0,21.7,29.95,East,86,0.0,0.0,80,0.00,,---,0.00,62.00,VWS V14.01,2013-02-05 18:01:00,
2013-02-05 13:04:00,27.1,21.8,29.95,East,86,0.0,0.0,80,0.00,,---,0.00,60.00,VWS V14.01,2013-02-05 18:04:00,
2013-02-05 13:05:00,27.1,21.5,29.95,East,86,0.0,0.0,79,0.00,,---,0.00,60.00,VWS V14.01,2013-02-05 18:05:00,
2013-02-05 13:06:00,27.1,21.5,29.95,East,86,0.0,0.0,79,0.00,,---,0.00,63.00,VWS V14.01,2013-02-05 18:06:00,
2013-02-05 13:09:00,27.1,21.5,29.95,East,86,0.0,0.0,79,0.00,,---,0.00,67.00,VWS V14.01,2013-02-05 18:09:00,
2013-02-05 13:10:00,27.1,21.5,29.95,East,86,0.0,0.0,79,0.00,,---,0.00,69.00,VWS V14.01,2013-02-05 18:10:00,
2013-02-05 13:11:00,27.2,21.6,29.95,East,86,0.0,0.0,79,0.00,,---,0.00,65.00,VWS V14.01,2013-02-05 18:11:00,
2013-02-05 13:14:00,27.2,21.6,29.95,East,86,0.0,0.0,79,0.00,,---,0.00,56.00,VWS V14.01,2013-02-05 18:14:00,
2013-02-05 13:15:00,27.2,21.6,29.95,East,86,0.0,0.0,79,0.00,,---,0.00,56.00,VWS V14.01,2013-02-05 18:15:00,
2013-02-05 13:16:00,27.2,21.6,29.95,East,86,0.0,0.0,79,0.00,,---,0.00,58.00,VWS V14.01,2013-02-05 18:16:00,
2013-02-05 13:19:00,27.2,21.6,29.95,East,86,0.0,1.0,79,0.00,,---,0.00,62.00,VWS V14.01,2013-02-05 18:19:00,
2013-02-05 13:20:00,27.2,21.6,29.95,East,86,0.0,1.0,79,0.00,,---,0.00,58.00,VWS V14.01,2013-02-05 18:20:00,
2013-02-05 13:22:00,27.2,21.6,29.95,East,86,0.0,0.0,79,0.00,,---,0.00,56.00,VWS V14.01,2013-02-05 18:22:00,
2013-02-05 13:24:00,27.2,21.6,29.95,East,86,0.0,0.0,79,0.00,,---,0.00,54.00,VWS V14.01,2013-02-05 18:24:00,
2013-02-05 13:25:00,27.3,21.7,29.95,East,86,0.0,0.0,79,0.00,,---,0.00,53.00,VWS V14.01,2013-02-05 18:25:00,
2013-02-05 13:27:00,27.3,21.7,29.94,East,86,0.0,0.0,79,0.00,,---,0.00,54.00,VWS V14.01,2013-02-05 18:27:00,
2013-02-05 13:29:00,27.3,21.7,29.94,East,86,0.0,0.0,79,0.00,,---,0.00,56.00,VWS V14.01,2013-02-05 18:29:00,
2013-02-05 13:30:00,27.3,21.7,29.94,East,86,0.0,0.0,79,0.00,,---,0.00,56.00,VWS V14.01,2013-02-05 18:30:00,
2013-02-05 13:32:00,27.4,21.8,29.94,East,86,0.0,0.0,79,0.00,,---,0.00,62.00,VWS V14.01,2013-02-05 18:32:00,
2013-02-05 13:34:00,27.4,21.8,29.94,East,86,0.0,0.0,79,0.00,,---,0.00,79.00,VWS V14.01,2013-02-05 18:34:00,
2013-02-05 13:35:00,27.4,21.8,29.94,East,86,0.0,0.0,79,0.00,,---,0.00,79.00,VWS V14.01,2013-02-05 18:35:00,
2013-02-05 13:37:00,27.4,21.8,29.94,East,86,0.0,0.0,79,0.00,,---,0.00,83.00,VWS V14.01,2013-02-05 18:37:00,
2013-02-05 13:39:00,27.4,21.8,29.93,East,86,0.0,0.0,79,0.00,,---,0.00,88.00,VWS V14.01,2013-02-05 18:39:00,
2013-02-05 13:40:00,27.4,21.8,29.93,East,86,0.0,0.0,79,0.00,,---,0.00,84.00,VWS V14.01,2013-02-05 18:40:00,
2013-02-05 13:42:00,27.4,21.8,29.94,East,86,0.0,0.0,79,0.00,,---,0.00,69.00,VWS V14.01,2013-02-05 18:42:00,
2013-02-05 13:44:00,27.5,22.1,29.94,East,86,0.0,0.0,80,0.00,,---,0.00,67.00,VWS V14.01,2013-02-05 18:44:00,
2013-02-05 13:45:00,27.5,22.1,29.94,East,86,0.0,0.0,80,0.00,,---,0.00,70.00,VWS V14.01,2013-02-05 18:45:00,
2013-02-05 13:47:00,27.5,22.1,29.94,East,86,0.0,0.0,80,0.00,,---,0.00,69.00,VWS V14.01,2013-02-05 18:47:00,
2013-02-05 13:49:00,27.5,21.9,29.94,ESE,115,0.0,0.0,79,0.00,,---,0.00,69.00,VWS V14.01,2013-02-05 18:49:00,
2013-02-05 13:50:00,27.6,22.0,29.94,ESE,115,0.0,0.0,79,0.00,,---,0.00,69.00,VWS V14.01,2013-02-05 18:50:00,
2013-02-05 13:52:00,27.6,22.0,29.94,ESE,115,0.0,0.0,79,0.00,,---,0.00,67.00,VWS V14.01,2013-02-05 18:52:00,
2013-02-05 13:54:00,27.6,22.0,29.94,ESE,115,0.0,0.0,79,0.00,,---,0.00,63.00,VWS V14.01,2013-02-05 18:54:00,
2013-02-05 13:55:00,27.6,22.0,29.94,ESE,115,0.0,1.0,79,0.00,,---,0.00,63.00,VWS V14.01,2013-02-05 18:55:00,
2013-02-05 13:57:00,27.7,21.8,29.94,SSE,148,0.0,2.0,78,0.00,,---,0.00,62.00,VWS V14.01,2013-02-05 18:57:00,
2013-02-05 13:59:00,27.7,21.8,29.93,SE,144,1.0,2.0,78,0.00,,---,0.00,62.00,VWS V14.01,2013-02-05 18:59:00,
2013-02-05 14:00:00,27.7,21.8,29.93,SE,145,0.0,2.0,78,0.00,,---,0.00,63.00,VWS V14.01,2013-02-05 19:00:00,
2013-02-05 14:02:00,27.7,21.8,29.93,SE,145,0.0,0.0,78,0.00,,---,0.00,62.00,VWS V14.01,2013-02-05 19:02:00,
2013-02-05 14:04:00,27.7,21.8,29.93,SE,145,0.0,0.0,78,0.00,,---,0.00,58.00,VWS V14.01,2013-02-05 19:04:00,
2013-02-05 14:05:00,27.7,21.8,29.93,SE,145,0.0,0.0,78,0.00,,---,0.00,56.00,VWS V14.01,2013-02-05 19:05:00,
2013-02-05 14:06:00,27.7,21.8,29.93,SE,145,0.0,0.0,78,0.00,,---,0.00,56.00,VWS V14.01,2013-02-05 19:06:00,
2013-02-05 14:07:00,27.7,21.8,29.93,SE,145,0.0,0.0,78,0.00,,---,0.00,54.00,VWS V14.01,2013-02-05 19:07:00,
2013-02-05 14:09:00,27.7,21.8,29.93,SE,145,0.0,0.0,78,0.00,,---,0.00,56.00,VWS V14.01,2013-02-05 19:09:00,
2013-02-05 14:10:00,27.7,21.8,29.93,SE,145,0.0,0.0,78,0.00,,---,0.00,58.00,VWS V14.01,2013-02-05 19:10:00,
2013-02-05 14:11:00,27.7,21.8,29.93,SE,145,0.0,0.0,78,0.00,,---,0.00,58.00,VWS V14.01,2013-02-05 19:11:00,
2013-02-05 14:12:00,27.7,21.8,29.93,ESE,108,1.0,1.0,78,0.00,,---,0.00,62.00,VWS V14.01,2013-02-05 19:12:00,
2013-02-05 14:15:00,27.8,21.9,29.92,ESE,109,0.0,1.0,78,0.00,,---,0.00,69.00,VWS V14.01,2013-02-05 19:15:00,
2013-02-05 14:16:00,27.7,21.8,29.92,ESE,109,0.0,1.0,78,0.00,,---,0.00,70.00,VWS V14.01,2013-02-05 19:16:00,
2013-02-05 14:17:00,27.7,21.8,29.92,ESE,109,0.0,1.0,78,0.00,,---,0.00,70.00,VWS V14.01,2013-02-05 19:17:00,
2013-02-05 14:20:00,27.7,21.4,29.92,ESE,109,0.0,1.0,77,0.00,,---,0.00,72.00,VWS V14.01,2013-02-05 19:20:00,
2013-02-05 14:21:00,27.7,21.4,29.92,ESE,109,0.0,1.0,77,0.00,,---,0.00,69.00,VWS V14.01,2013-02-05 19:21:00,
2013-02-05 14:22:00,27.7,21.4,29.92,ESE,109,0.0,0.0,77,0.00,,---,0.00,65.00,VWS V14.01,2013-02-05 19:22:00,
2013-02-05 14:25:00,27.7,21.4,29.92,ENE,59,0.0,2.0,77,0.00,,---,0.00,69.00,VWS V14.01,2013-02-05 19:25:00,
2013-02-05 14:26:00,27.6,21.6,29.92,East,87,0.0,2.0,78,0.00,,---,0.00,69.00,VWS V14.01,2013-02-05 19:26:00,
2013-02-05 14:27:00,27.6,21.4,29.92,East,87,0.0,2.0,77,0.00,,---,0.00,67.00,VWS V14.01,2013-02-05 19:27:00,
2013-02-05 14:30:00,27.6,21.6,29.92,East,86,0.0,2.0,78,0.00,,---,0.00,67.00,VWS V14.01,2013-02-05 19:30:00,
2013-02-05 14:31:00,27.6,21.6,29.92,ENE,73,0.0,2.0,78,0.00,,---,0.00,67.00,VWS V14.01,2013-02-05 19:31:00,
2013-02-05 14:32:00,27.6,21.6,29.92,ENE,73,0.0,0.0,78,0.00,,---,0.00,63.00,VWS V14.01,2013-02-05 19:32:00,
2013-02-05 14:35:00,27.6,21.6,29.91,SSE,149,0.0,1.0,78,0.00,,---,0.00,65.00,VWS V14.01,2013-02-05 19:35:00,
2013-02-05 14:36:00,27.6,21.4,29.92,SSE,164,0.0,1.0,77,0.00,,---,0.00,63.00,VWS V14.01,2013-02-05 19:36:00,
2013-02-05 14:37:00,27.6,21.4,29.92,SSE,164,0.0,1.0,77,0.00,,---,0.00,60.00,VWS V14.01,2013-02-05 19:37:00,
2013-02-05 14:40:00,27.7,21.4,29.92,SSE,164,0.0,1.0,77,0.00,,---,0.00,58.00,VWS V14.01,2013-02-05 19:40:00,
2013-02-05 14:41:00,27.7,21.4,29.92,SSE,164,0.0,1.0,77,0.00,,---,0.00,58.00,VWS V14.01,2013-02-05 19:41:00,
2013-02-05 14:43:00,27.7,21.8,29.91,SSE,164,0.0,0.0,78,0.00,,---,0.00,58.00,VWS V14.01,2013-02-05 19:43:00,
2013-02-05 14:45:00,27.7,21.4,29.91,South,171,0.0,1.0,77,0.00,,---,0.00,58.00,VWS V14.01,2013-02-05 19:45:00,
2013-02-05 14:46:00,27.7,21.4,29.91,South,171,0.0,1.0,77,0.00,,---,0.00,58.00,VWS V14.01,2013-02-05 19:46:00,
2013-02-05 14:48:00,27.7,21.8,29.91,South,171,0.0,1.0,78,0.00,,---,0.00,54.00,VWS V14.01,2013-02-05 19:48:00,
2013-02-05 14:50:00,27.7,21.4,29.91,South,171,0.0,1.0,77,0.00,,---,0.00,54.00,VWS V14.01,2013-02-05 19:50:00,
2013-02-05 14:51:00,27.7,21.4,29.91,South,171,0.0,1.0,77,0.00,,---,0.00,56.00,VWS V14.01,2013-02-05 19:51:00,
2013-02-05 14:52:00,27.7,21.4,29.91,South,171,0.0,0.0,77,0.00,,---,0.00,62.00,VWS V14.01,2013-02-05 19:52:00,
2013-02-05 14:53:00,27.7,21.4,29.91,South,171,0.0,0.0,77,0.00,,---,0.00,63.00,VWS V14.01,2013-02-05 19:53:00,
2013-02-05 14:55:00,27.8,21.5,29.91,SE,146,0.0,2.0,77,0.00,,---,0.00,62.00,VWS V14.01,2013-02-05 19:55:00,
2013-02-05 14:56:00,27.7,21.1,29.91,South,178,0.0,2.0,76,0.00,,---,0.00,60.00,VWS V14.01,2013-02-05 19:56:00,
2013-02-05 14:57:00,27.8,21.5,29.91,South,178,0.0,2.0,77,0.00,,---,0.00,58.00,VWS V14.01,2013-02-05 19:57:00,
2013-02-05 14:59:00,27.8,21.5,29.91,South,178,0.0,2.0,77,0.00,,---,0.00,56.00,VWS V14.01,2013-02-05 19:59:00,
2013-02-05 15:00:00,27.7,21.1,29.91,South,178,0.0,2.0,76,0.00,,---,0.00,58.00,VWS V14.01,2013-02-05 20:00:00,
2013-02-05 15:01:00,27.7,21.4,29.91,South,178,0.0,2.0,77,0.00,,---,0.00,58.00,VWS V14.01,2013-02-05 20:01:00,
2013-02-05 15:02:00,27.8,21.5,29.91,South,178,0.0,0.0,77,0.00,,---,0.00,58.00,VWS V14.01,2013-02-05 20:02:00,
2013-02-05 15:04:00,27.8,21.5,29.91,South,178,0.0,0.0,77,0.00,,---,0.00,54.00,VWS V14.01,2013-02-05 20:04:00,
2013-02-05 15:05:00,27.8,21.5,29.91,South,178,0.0,0.0,77,0.00,,---,0.00,47.00,VWS V14.01,2013-02-05 20:05:00,
2013-02-05 15:06:00,27.8,21.5,29.91,South,178,0.0,0.0,77,0.00,,---,0.00,46.00,VWS V14.01,2013-02-05 20:06:00,
2013-02-05 15:08:00,27.8,21.5,29.91,South,178,0.0,0.0,77,0.00,,---,0.00,42.00,VWS V14.01,2013-02-05 20:08:00,
2013-02-05 15:09:00,27.8,21.5,29.91,ENE,75,1.0,1.0,77,0.00,,---,0.00,42.00,VWS V14.01,2013-02-05 20:09:00,
2013-02-05 15:10:00,27.7,21.1,29.91,NE,36,0.0,2.0,76,0.00,,---,0.00,42.00,VWS V14.01,2013-02-05 20:10:00,
2013-02-05 15:11:00,27.8,21.2,29.91,NE,36,0.0,2.0,76,0.00,,---,0.00,40.00,VWS V14.01,2013-02-05 20:11:00,
2013-02-05 15:13:00,27.7,21.4,29.91,NE,51,0.0,0.0,77,0.00,,---,0.00,42.00,VWS V14.01,2013-02-05 20:13:00,
2013-02-05 15:14:00,27.7,21.4,29.91,NE,55,0.0,0.0,77,0.00,,---,0.00,42.00,VWS V14.01,2013-02-05 20:14:00,
2013-02-05 15:15:00,27.7,21.4,29.91,NE,55,0.0,0.0,77,0.00,,---,0.00,42.00,VWS V14.01,2013-02-05 20:15:00,
2013-02-05 15:16:00,27.7,21.1,29.91,NE,55,0.0,0.0,76,0.00,,---,0.00,42.00,VWS V14.01,2013-02-05 20:16:00,
2013-02-05 15:18:00,27.6,21.0,29.91,NE,55,0.0,0.0,76,0.00,,---,0.00,46.00,VWS V14.01,2013-02-05 20:18:00,
2013-02-05 15:19:00,27.7,21.1,29.91,NE,55,0.0,0.0,76,0.00,,---,0.00,46.00,VWS V14.01,2013-02-05 20:19:00,
2013-02-05 15:21:00,27.6,21.0,29.91,NE,55,0.0,0.0,76,0.00,,---,0.00,40.00,VWS V14.01,2013-02-05 20:21:00,
2013-02-05 15:23:00,27.7,21.8,29.92,NE,56,0.0,0.0,78,0.00,,---,0.00,32.00,VWS V14.01,2013-02-05 20:23:00,
2013-02-05 15:24:00,27.6,21.4,29.92,NE,56,0.0,0.0,77,0.00,,---,0.00,30.00,VWS V14.01,2013-02-05 20:24:00,
2013-02-05 15:26:00,27.7,21.4,29.92,NE,56,0.0,0.0,77,0.00,,---,0.00,32.00,VWS V14.01,2013-02-05 20:26:00,
2013-02-05 15:29:00,27.6,21.4,29.92,NE,56,0.0,0.0,77,0.00,,---,0.00,32.00,VWS V14.01,2013-02-05 20:29:00,
2013-02-05 15:31:00,27.7,21.4,29.92,NE,56,0.0,0.0,77,0.00,,---,0.00,32.00,VWS V14.01,2013-02-05 20:31:00,
2013-02-05 15:34:00,27.7,21.1,29.93,NE,56,0.0,0.0,76,0.00,,---,0.00,33.00,VWS V14.01,2013-02-05 20:34:00,
2013-02-05 15:35:00,27.7,21.1,29.93,ENE,57,0.0,0.0,76,0.00,,---,0.00,32.00,VWS V14.01,2013-02-05 20:35:00,
2013-02-05 15:36:00,27.7,21.4,29.93,ENE,57,0.0,0.0,77,0.00,,---,0.00,32.00,VWS V14.01,2013-02-05 20:36:00,
2013-02-05 15:37:00,27.6,21.4,29.93,ENE,57,0.0,0.0,77,0.00,,---,0.00,32.00,VWS V14.01,2013-02-05 20:37:00,
2013-02-05 15:39:00,27.6,21.0,29.93,ENE,57,0.0,1.0,76,0.00,,---,0.00,30.00,VWS V14.01,2013-02-05 20:39:00,
2013-02-05 15:40:00,27.6,21.0,29.93,ENE,57,0.0,1.0,76,0.00,,---,0.00,30.00,VWS V14.01,2013-02-05 20:40:00,
2013-02-05 15:41:00,27.6,21.4,29.93,ENE,57,0.0,1.0,77,0.00,,---,0.00,32.00,VWS V14.01,2013-02-05 20:41:00,
2013-02-05 15:42:00,27.6,21.4,29.92,ENE,57,0.0,0.0,77,0.00,,---,0.00,33.00,VWS V14.01,2013-02-05 20:42:00,
2013-02-05 15:44:00,27.6,21.4,29.92,ENE,57,0.0,0.0,77,0.00,,---,0.00,37.00,VWS V14.01,2013-02-05 20:44:00,
2013-02-05 15:45:00,27.6,21.4,29.92,ENE,57,0.0,0.0,77,0.00,,---,0.00,37.00,VWS V14.01,2013-02-05 20:45:00,
2013-02-05 15:46:00,27.6,21.6,29.92,ENE,57,0.0,0.0,78,0.00,,---,0.00,33.00,VWS V14.01,2013-02-05 20:46:00,
2013-02-05 15:47:00,27.6,21.6,29.92,ENE,57,0.0,0.0,78,0.00,,---,0.00,30.00,VWS V14.01,2013-02-05 20:47:00,
2013-02-05 15:49:00,27.6,21.6,29.93,ENE,57,0.0,0.0,78,0.00,,---,0.00,23.00,VWS V14.01,2013-02-05 20:49:00,
2013-02-05 15:50:00,27.6,21.6,29.92,ENE,57,0.0,0.0,78,0.00,,---,0.00,21.00,VWS V14.01,2013-02-05 20:50:00,
2013-02-05 15:51:00,27.6,22.0,29.92,ENE,57,0.0,0.0,79,0.00,,---,0.00,21.00,VWS V14.01,2013-02-05 20:51:00,
2013-02-05 15:52:00,27.6,22.0,29.92,ENE,57,0.0,0.0,79,0.00,,---,0.00,21.00,VWS V14.01,2013-02-05 20:52:00,
2013-02-05 15:54:00,27.5,21.5,29.93,SE,140,0.0,1.0,78,0.00,,---,0.00,21.00,VWS V14.01,2013-02-05 20:54:00,
2013-02-05 15:55:00,27.5,21.5,29.93,SE,140,0.0,1.0,78,0.00,,---,0.00,23.00,VWS V14.01,2013-02-05 20:55:00,
2013-02-05 15:56:00,27.5,21.5,29.92,SE,140,0.0,1.0,78,0.00,,---,0.00,25.00,VWS V14.01,2013-02-05 20:56:00,
2013-02-05 15:57:00,27.5,21.5,29.92,SE,140,0.0,1.0,78,0.00,,---,0.00,25.00,VWS V14.01,2013-02-05 20:57:00,
2013-02-05 15:59:00,27.5,21.5,29.93,SE,140,0.0,1.0,78,0.00,,---,0.00,18.00,VWS V14.01,2013-02-05 20:59:00,
2013-02-05 16:00:00,27.5,21.5,29.93,SE,140,0.0,1.0,78,0.00,,---,0.00,19.00,VWS V14.01,2013-02-05 21:00:00,
2013-02-05 16:01:00,27.5,21.5,29.93,SE,140,0.0,1.0,78,0.00,,---,0.00,19.00,VWS V14.01,2013-02-05 21:01:00,
2013-02-05 16:02:00,27.5,21.5,29.92,SE,140,0.0,0.0,78,0.00,,---,0.00,23.00,VWS V14.01,2013-02-05 21:02:00,
2013-02-05 16:05:00,27.4,21.5,29.92,SE,140,0.0,0.0,78,0.00,,---,0.00,25.00,VWS V14.01,2013-02-05 21:05:00,
2013-02-05 16:07:00,27.4,21.8,29.92,SE,140,0.0,0.0,79,0.00,,---,0.00,21.00,VWS V14.01,2013-02-05 21:07:00,
2013-02-05 16:10:00,27.4,21.8,29.92,SE,140,0.0,0.0,79,0.00,,---,0.00,19.00,VWS V14.01,2013-02-05 21:10:00,
2013-02-05 16:12:00,27.4,21.8,29.92,SE,140,0.0,0.0,79,0.00,,---,0.00,19.00,VWS V14.01,2013-02-05 21:12:00,
2013-02-05 16:15:00,27.4,21.8,29.92,SE,140,0.0,0.0,79,0.00,,---,0.00,18.00,VWS V14.01,2013-02-05 21:15:00,
2013-02-05 16:17:00,27.4,21.8,29.92,SE,140,0.0,0.0,79,0.00,,---,0.00,18.00,VWS V14.01,2013-02-05 21:17:00,
2013-02-05 16:18:00,27.4,22.0,29.92,SE,140,0.0,0.0,80,0.00,,---,0.00,16.00,VWS V14.01,2013-02-05 21:18:00,
2013-02-05 16:20:00,27.3,22.0,29.92,SE,140,0.0,0.0,80,0.00,,---,0.00,16.00,VWS V14.01,2013-02-05 21:20:00,
2013-02-05 16:22:00,27.3,22.0,29.92,SE,140,0.0,0.0,80,0.00,,---,0.00,16.00,VWS V14.01,2013-02-05 21:22:00,
2013-02-05 16:23:00,27.3,22.0,29.92,SE,140,0.0,0.0,80,0.00,,---,0.00,16.00,VWS V14.01,2013-02-05 21:23:00,
2013-02-05 16:25:00,27.3,22.0,29.92,SE,140,0.0,0.0,80,0.00,,---,0.00,14.00,VWS V14.01,2013-02-05 21:25:00,
2013-02-05 16:27:00,27.3,22.0,29.92,SE,140,0.0,0.0,80,0.00,,---,0.00,14.00,VWS V14.01,2013-02-05 21:27:00,
2013-02-05 16:28:00,27.3,22.0,29.92,SE,140,0.0,0.0,80,0.00,,---,0.00,16.00,VWS V14.01,2013-02-05 21:28:00,
2013-02-05 16:30:00,27.2,21.9,29.91,SE,140,0.0,0.0,80,0.00,,---,0.00,16.00,VWS V14.01,2013-02-05 21:30:00,
2013-02-05 16:31:00,27.3,22.0,29.91,SE,140,0.0,0.0,80,0.00,,---,0.00,16.00,VWS V14.01,2013-02-05 21:31:00,
2013-02-05 16:32:00,27.2,21.9,29.92,SE,140,0.0,0.0,80,0.00,,---,0.00,14.00,VWS V14.01,2013-02-05 21:32:00,
2013-02-05 16:33:00,27.2,22.1,29.92,SE,140,0.0,0.0,81,0.00,,---,0.00,14.00,VWS V14.01,2013-02-05 21:33:00,
2013-02-05 16:35:00,27.2,22.1,29.92,SE,140,0.0,0.0,81,0.00,,---,0.00,14.00,VWS V14.01,2013-02-05 21:35:00,
2013-02-05 16:36:00,27.2,22.1,29.92,SE,140,0.0,0.0,81,0.00,,---,0.00,14.00,VWS V14.01,2013-02-05 21:36:00,
2013-02-05 16:37:00,27.2,22.1,29.92,SE,140,0.0,0.0,81,0.00,,---,0.00,12.00,VWS V14.01,2013-02-05 21:37:00,
2013-02-05 16:38:00,27.2,22.1,29.92,SE,140,0.0,0.0,81,0.00,,---,0.00,12.00,VWS V14.01,2013-02-05 21:38:00,
2013-02-05 16:40:00,27.1,22.1,29.92,SE,140,0.0,0.0,81,0.00,,---,0.00,11.00,VWS V14.01,2013-02-05 21:40:00,
2013-02-05 16:41:00,27.2,22.1,29.92,SE,140,0.0,0.0,81,0.00,,---,0.00,11.00,VWS V14.01,2013-02-05 21:41:00,
2013-02-05 16:42:00,27.1,22.1,29.92,SE,140,0.0,0.0,81,0.00,,---,0.00,11.00,VWS V14.01,2013-02-05 21:42:00,
2013-02-05 16:43:00,27.1,22.4,29.92,SE,140,0.0,0.0,82,0.00,,---,0.00,11.00,VWS V14.01,2013-02-05 21:43:00,
2013-02-05 16:45:00,27.1,22.4,29.92,SE,140,0.0,0.0,82,0.00,,---,0.00,9.00,VWS V14.01,2013-02-05 21:45:00,
2013-02-05 16:46:00,27.1,22.4,29.92,SE,140,0.0,0.0,82,0.00,,---,0.00,9.00,VWS V14.01,2013-02-05 21:46:00,
2013-02-05 16:47:00,27.1,22.4,29.92,SE,140,0.0,0.0,82,0.00,,---,0.00,9.00,VWS V14.01,2013-02-05 21:47:00,
2013-02-05 16:48:00,27.0,22.2,29.92,SE,140,0.0,0.0,82,0.00,,---,0.00,7.00,VWS V14.01,2013-02-05 21:48:00,
2013-02-05 16:51:00,27.0,22.2,29.92,SE,140,0.0,0.0,82,0.00,,---,0.00,5.00,VWS V14.01,2013-02-05 21:51:00,
2013-02-05 16:52:00,27.0,22.2,29.92,SE,140,0.0,0.0,82,0.00,,---,0.00,5.00,VWS V14.01,2013-02-05 21:52:00,
2013-02-05 16:53:00,27.0,22.5,29.92,SE,140,0.0,0.0,83,0.00,,---,0.00,5.00,VWS V14.01,2013-02-05 21:53:00,
2013-02-05 16:56:00,27.0,22.5,29.92,SE,140,0.0,0.0,83,0.00,,---,0.00,0.00,VWS V14.01,2013-02-05 21:56:00,
2013-02-05 16:57:00,26.9,22.4,29.92,SE,140,0.0,0.0,83,0.00,,---,0.00,0.00,VWS V14.01,2013-02-05 21:57:00,
2013-02-05 16:58:00,26.9,22.4,29.92,SE,140,0.0,0.0,83,0.00,,---,0.00,0.00,VWS V14.01,2013-02-05 21:58:00,
2013-02-05 17:01:00,26.9,22.4,29.91,SE,140,0.0,0.0,83,0.00,,---,0.00,0.00,VWS V14.01,2013-02-05 22:01:00,
2013-02-05 17:02:00,26.8,22.3,29.92,SE,140,0.0,0.0,83,0.00,,---,0.00,0.00,VWS V14.01,2013-02-05 22:02:00,
2013-02-05 17:03:00,26.8,22.3,29.92,SE,140,0.0,0.0,83,0.00,,---,0.00,0.00,VWS V14.01,2013-02-05 22:03:00,
2013-02-05 17:06:00,26.8,22.3,29.92,SE,140,0.0,0.0,83,0.00,,---,0.00,0.00,VWS V14.01,2013-02-05 22:06:00,
2013-02-05 17:07:00,26.7,22.2,29.92,SE,140,0.0,0.0,83,0.00,,---,0.00,0.00,VWS V14.01,2013-02-05 22:07:00,
2013-02-05 17:09:00,26.7,22.2,29.92,SE,140,0.0,0.0,83,0.00,,---,0.00,0.00,VWS V14.01,2013-02-05 22:09:00,
2013-02-05 17:11:00,26.7,22.2,29.92,SE,140,0.0,0.0,83,0.00,,---,0.00,0.00,VWS V14.01,2013-02-05 22:11:00,
2013-02-05 17:12:00,26.7,22.2,29.92,SE,140,0.0,0.0,83,0.00,,---,0.00,0.00,VWS V14.01,2013-02-05 22:12:00,
2013-02-05 17:13:00,26.7,22.2,29.92,SE,140,0.0,0.0,83,0.00,,---,0.00,0.00,VWS V14.01,2013-02-05 22:13:00,
2013-02-05 17:14:00,26.7,22.2,29.92,SE,140,0.0,0.0,83,0.00,,---,0.00,0.00,VWS V14.01,2013-02-05 22:14:00,
2013-02-05 17:16:00,26.6,22.1,29.92,SE,140,0.0,0.0,83,0.00,,---,0.00,0.00,VWS V14.01,2013-02-05 22:16:00,
2013-02-05 17:17:00,26.7,22.2,29.92,SE,140,0.0,0.0,83,0.00,,---,0.00,0.00,VWS V14.01,2013-02-05 22:17:00,
2013-02-05 17:18:00,26.6,22.1,29.92,SE,140,0.0,0.0,83,0.00,,---,0.00,0.00,VWS V14.01,2013-02-05 22:18:00,
2013-02-05 17:19:00,26.6,22.1,29.92,SE,140,0.0,0.0,83,0.00,,---,0.00,0.00,VWS V14.01,2013-02-05 22:19:00,
2013-02-05 17:22:00,26.6,22.4,29.92,SE,140,0.0,0.0,84,0.00,,---,0.00,0.00,VWS V14.01,2013-02-05 22:22:00,
2013-02-05 17:23:00,26.6,22.4,29.92,SE,140,0.0,0.0,84,0.00,,---,0.00,0.00,VWS V14.01,2013-02-05 22:23:00,
2013-02-05 17:24:00,26.6,22.4,29.92,SE,140,0.0,0.0,84,0.00,,---,0.00,0.00,VWS V14.01,2013-02-05 22:24:00,
2013-02-05 17:27:00,26.5,22.3,29.92,SE,140,0.0,0.0,84,0.00,,---,0.00,0.00,VWS V14.01,2013-02-05 22:27:00,
2013-02-05 17:28:00,26.5,22.3,29.92,SE,140,0.0,0.0,84,0.00,,---,0.00,0.00,VWS V14.01,2013-02-05 22:28:00,
2013-02-05 17:29:00,26.5,22.3,29.92,SE,140,0.0,0.0,84,0.00,,---,0.00,0.00,VWS V14.01,2013-02-05 22:29:00,
2013-02-05 17:32:00,26.4,22.2,29.92,SE,140,0.0,0.0,84,0.00,,---,0.00,0.00,VWS V14.01,2013-02-05 22:32:00,
2013-02-05 17:33:00,26.4,22.5,29.92,SE,140,0.0,0.0,85,0.00,,---,0.00,0.00,VWS V14.01,2013-02-05 22:33:00,
2013-02-05 17:35:00,26.4,22.5,29.92,SE,140,0.0,0.0,85,0.00,,---,0.00,0.00,VWS V14.01,2013-02-05 22:35:00,
2013-02-05 17:37:00,26.3,22.4,29.91,SE,140,0.0,0.0,85,0.00,,---,0.00,0.00,VWS V14.01,2013-02-05 22:37:00,
2013-02-05 17:38:00,26.4,22.5,29.91,SE,140,0.0,0.0,85,0.00,,---,0.00,0.00,VWS V14.01,2013-02-05 22:38:00,
2013-02-05 17:40:00,26.3,22.4,29.91,SE,140,0.0,0.0,85,0.00,,---,0.00,0.00,VWS V14.01,2013-02-05 22:40:00,
2013-02-05 17:42:00,26.3,22.4,29.91,SE,140,0.0,0.0,85,0.00,,---,0.00,0.00,VWS V14.01,2013-02-05 22:42:00,
2013-02-05 17:43:00,26.3,22.4,29.91,SE,140,0.0,0.0,85,0.00,,---,0.00,0.00,VWS V14.01,2013-02-05 22:43:00,
2013-02-05 17:45:00,26.2,22.3,29.91,SE,140,0.0,0.0,85,0.00,,---,0.00,0.00,VWS V14.01,2013-02-05 22:45:00,
2013-02-05 17:47:00,26.2,22.3,29.92,SE,140,0.0,0.0,85,0.00,,---,0.00,0.00,VWS V14.01,2013-02-05 22:47:00,
2013-02-05 17:48:00,26.2,22.6,29.92,SE,140,0.0,0.0,86,0.00,,---,0.00,0.00,VWS V14.01,2013-02-05 22:48:00,
2013-02-05 17:50:00,26.1,22.5,29.91,SE,140,0.0,0.0,86,0.00,,---,0.00,0.00,VWS V14.01,2013-02-05 22:50:00,
2013-02-05 17:52:00,26.1,22.5,29.91,SE,140,0.0,0.0,86,0.00,,---,0.00,0.00,VWS V14.01,2013-02-05 22:52:00,
2013-02-05 17:53:00,26.1,22.5,29.91,SE,140,0.0,0.0,86,0.00,,---,0.00,0.00,VWS V14.01,2013-02-05 22:53:00,
2013-02-05 17:55:00,26.1,22.5,29.91,SE,140,0.0,0.0,86,0.00,,---,0.00,0.00,VWS V14.01,2013-02-05 22:55:00,
2013-02-05 17:57:00,26.0,22.4,29.91,SE,140,0.0,0.0,86,0.00,,---,0.00,0.00,VWS V14.01,2013-02-05 22:57:00,
2013-02-05 17:58:00,26.0,22.7,29.91,SE,140,0.0,0.0,87,0.00,,---,0.00,0.00,VWS V14.01,2013-02-05 22:58:00,
2013-02-05 18:00:00,26.0,22.7,29.91,SE,140,0.0,0.0,87,0.00,,---,0.00,0.00,VWS V14.01,2013-02-05 23:00:00,
2013-02-05 18:02:00,26.0,22.7,29.91,SE,140,0.0,0.0,87,0.00,,---,0.00,0.00,VWS V14.01,2013-02-05 23:02:00,
2013-02-05 18:03:00,25.9,22.6,29.91,SE,140,0.0,0.0,87,0.00,,---,0.00,0.00,VWS V14.01,2013-02-05 23:03:00,
2013-02-05 18:05:00,25.9,22.6,29.91,SE,140,0.0,0.0,87,0.00,,---,0.00,0.00,VWS V14.01,2013-02-05 23:05:00,
2013-02-05 18:07:00,25.9,22.6,29.91,SE,140,0.0,0.0,87,0.00,,---,0.00,0.00,VWS V14.01,2013-02-05 23:07:00,
2013-02-05 18:08:00,25.9,22.6,29.91,SE,140,0.0,0.0,87,0.00,,---,0.00,0.00,VWS V14.01,2013-02-05 23:08:00,
2013-02-05 18:11:00,25.8,22.5,29.91,SE,140,0.0,0.0,87,0.00,,---,0.00,0.00,VWS V14.01,2013-02-05 23:11:00,
2013-02-05 18:13:00,25.8,22.7,29.91,SE,140,0.0,0.0,88,0.00,,---,0.00,0.00,VWS V14.01,2013-02-05 23:13:00,
2013-02-05 18:16:00,25.8,22.7,29.91,SE,140,0.0,0.0,88,0.00,,---,0.00,0.00,VWS V14.01,2013-02-05 23:16:00,
2013-02-05 18:18:00,25.7,22.6,29.91,SE,140,0.0,0.0,88,0.00,,---,0.00,0.00,VWS V14.01,2013-02-05 23:18:00,
2013-02-05 18:21:00,25.6,22.5,29.92,SE,140,0.0,0.0,88,0.00,,---,0.00,0.00,VWS V14.01,2013-02-05 23:21:00,
2013-02-05 18:23:00,25.6,22.5,29.92,SE,140,0.0,0.0,88,0.00,,---,0.00,0.00,VWS V14.01,2013-02-05 23:23:00,
2013-02-05 18:26:00,25.6,22.5,29.92,SE,140,0.0,0.0,88,0.00,,---,0.00,0.00,VWS V14.01,2013-02-05 23:26:00,
2013-02-05 18:28:00,25.6,22.3,29.92,SE,140,0.0,0.0,87,0.00,,---,0.00,0.00,VWS V14.01,2013-02-05 23:28:00,
2013-02-05 18:31:00,25.5,22.5,29.92,SE,140,0.0,0.0,88,0.00,,---,0.00,0.00,VWS V14.01,2013-02-05 23:31:00,
2013-02-05 18:33:00,25.5,22.5,29.92,SE,140,0.0,0.0,88,0.00,,---,0.00,0.00,VWS V14.01,2013-02-05 23:33:00,
2013-02-05 18:34:00,25.5,22.5,29.92,SE,140,0.0,0.0,88,0.00,,---,0.00,0.00,VWS V14.01,2013-02-05 23:34:00,
2013-02-05 18:37:00,25.5,22.5,29.92,SE,140,0.0,0.0,88,0.00,,---,0.00,0.00,VWS V14.01,2013-02-05 23:37:00,
2013-02-05 18:38:00,25.5,22.5,29.92,SE,140,0.0,0.0,88,0.00,,---,0.00,0.00,VWS V14.01,2013-02-05 23:38:00,
2013-02-05 18:39:00,25.4,22.4,29.92,SE,140,0.0,0.0,88,0.00,,---,0.00,0.00,VWS V14.01,2013-02-05 23:39:00,
2013-02-05 18:42:00,25.4,22.4,29.92,SE,140,0.0,0.0,88,0.00,,---,0.00,0.00,VWS V14.01,2013-02-05 23:42:00,
2013-02-05 18:43:00,25.4,22.6,29.92,SE,140,0.0,0.0,89,0.00,,---,0.00,0.00,VWS V14.01,2013-02-05 23:43:00,
2013-02-05 18:44:00,25.4,22.6,29.92,SE,140,0.0,0.0,89,0.00,,---,0.00,0.00,VWS V14.01,2013-02-05 23:44:00,
2013-02-05 18:47:00,25.4,22.6,29.92,SE,140,0.0,0.0,89,0.00,,---,0.00,0.00,VWS V14.01,2013-02-05 23:47:00,
2013-02-05 18:49:00,25.4,22.6,29.92,SE,140,0.0,0.0,89,0.00,,---,0.00,0.00,VWS V14.01,2013-02-05 23:49:00,
2013-02-05 18:52:00,25.3,22.5,29.92,SE,140,0.0,0.0,89,0.00,,---,0.00,0.00,VWS V14.01,2013-02-05 23:52:00,
2013-02-05 18:54:00,25.3,22.5,29.92,SE,140,0.0,0.0,89,0.00,,---,0.00,0.00,VWS V14.01,2013-02-05 23:54:00,
2013-02-05 18:55:00,25.3,22.5,29.92,SE,140,0.0,0.0,89,0.00,,---,0.00,0.00,VWS V14.01,2013-02-05 23:55:00,
2013-02-05 18:57:00,25.3,22.5,29.92,SE,140,0.0,0.0,89,0.00,,---,0.00,0.00,VWS V14.01,2013-02-05 23:57:00,
2013-02-05 18:59:00,25.3,22.5,29.92,SE,140,0.0,0.0,89,0.00,,---,0.00,0.00,VWS V14.01,2013-02-05 23:59:00,
2013-02-05 19:00:00,25.3,22.5,29.92,SE,140,0.0,0.0,89,0.00,,---,0.00,0.00,VWS V14.01,2013-02-06 00:00:00,
2013-02-05 19:03:00,25.3,22.5,29.92,SE,140,0.0,0.0,89,0.00,,---,0.00,0.00,VWS V14.01,2013-02-06 00:03:00,
2013-02-05 19:04:00,25.3,22.5,29.92,SE,140,0.0,0.0,89,0.00,,---,0.00,0.00,VWS V14.01,2013-02-06 00:04:00,
2013-02-05 19:05:00,25.3,22.5,29.92,SE,140,0.0,0.0,89,0.00,,---,0.00,0.00,VWS V14.01,2013-02-06 00:05:00,
2013-02-05 19:08:00,25.3,22.5,29.92,SE,140,0.0,0.0,89,0.00,,---,0.00,0.00,VWS V14.01,2013-02-06 00:08:00,
2013-02-05 19:09:00,25.3,22.5,29.92,SE,140,0.0,0.0,89,0.00,,---,0.00,0.00,VWS V14.01,2013-02-06 00:09:00,
2013-02-05 19:10:00,25.3,22.5,29.92,SE,140,0.0,0.0,89,0.00,,---,0.00,0.00,VWS V14.01,2013-02-06 00:10:00,
2013-02-05 19:13:00,25.2,22.4,29.92,SE,140,0.0,0.0,89,0.00,,---,0.00,0.00,VWS V14.01,2013-02-06 00:13:00,
2013-02-05 19:14:00,25.2,22.4,29.92,SE,140,0.0,0.0,89,0.00,,---,0.00,0.00,VWS V14.01,2013-02-06 00:14:00,
2013-02-05 19:15:00,25.2,22.4,29.92,SE,140,0.0,0.0,89,0.00,,---,0.00,0.00,VWS V14.01,2013-02-06 00:15:00,
2013-02-05 19:16:00,25.3,22.5,29.92,SE,140,0.0,0.0,89,0.00,,---,0.00,0.00,VWS V14.01,2013-02-06 00:16:00,
2013-02-05 19:18:00,25.2,22.4,29.92,SE,140,0.0,0.0,89,0.00,,---,0.00,0.00,VWS V14.01,2013-02-06 00:18:00,
2013-02-05 19:19:00,25.2,22.4,29.92,SE,140,0.0,0.0,89,0.00,,---,0.00,0.00,VWS V14.01,2013-02-06 00:19:00,
2013-02-05 19:20:00,25.2,22.4,29.92,SE,140,0.0,0.0,89,0.00,,---,0.00,0.00,VWS V14.01,2013-02-06 00:20:00,
2013-02-05 19:21:00,25.2,22.4,29.92,SE,140,0.0,0.0,89,0.00,,---,0.00,0.00,VWS V14.01,2013-02-06 00:21:00,
2013-02-05 19:23:00,25.2,22.4,29.92,SE,140,0.0,0.0,89,0.00,,---,0.00,0.00,VWS V14.01,2013-02-06 00:23:00,
2013-02-05 19:24:00,25.2,22.4,29.92,SE,140,0.0,0.0,89,0.00,,---,0.00,0.00,VWS V14.01,2013-02-06 00:24:00,
2013-02-05 19:25:00,25.2,22.4,29.92,SE,140,0.0,0.0,89,0.00,,---,0.00,0.00,VWS V14.01,2013-02-06 00:25:00,
2013-02-05 19:26:00,25.2,22.4,29.92,SE,140,0.0,0.0,89,0.00,,---,0.00,0.00,VWS V14.01,2013-02-06 00:26:00,
2013-02-05 19:28:00,25.2,22.4,29.92,SE,140,0.0,0.0,89,0.00,,---,0.00,0.00,VWS V14.01,2013-02-06 00:28:00,
2013-02-05 19:30:00,25.2,22.4,29.92,SE,140,0.0,0.0,89,0.00,,---,0.00,0.00,VWS V14.01,2013-02-06 00:30:00,
2013-02-05 19:31:00,25.2,22.4,29.92,SE,140,0.0,0.0,89,0.00,,---,0.00,0.00,VWS V14.01,2013-02-06 00:31:00,
2013-02-05 19:33:00,25.2,22.4,29.92,SE,140,0.0,0.0,89,0.00,,---,0.00,0.00,VWS V14.01,2013-02-06 00:33:00,
2013-02-05 19:35:00,25.3,22.5,29.92,SE,140,0.0,0.0,89,0.00,,---,0.00,0.00,VWS V14.01,2013-02-06 00:35:00,
2013-02-05 19:36:00,25.3,22.5,29.92,SE,140,0.0,0.0,89,0.00,,---,0.00,0.00,VWS V14.01,2013-02-06 00:36:00,
2013-02-05 19:38:00,25.3,22.5,29.92,SE,140,0.0,0.0,89,0.00,,---,0.00,0.00,VWS V14.01,2013-02-06 00:38:00,
2013-02-05 19:40:00,25.3,22.5,29.92,SE,140,0.0,0.0,89,0.00,,---,0.00,0.00,VWS V14.01,2013-02-06 00:40:00,
2013-02-05 19:41:00,25.3,22.8,29.92,SE,140,0.0,0.0,90,0.00,,---,0.00,0.00,VWS V14.01,2013-02-06 00:41:00,
2013-02-05 19:43:00,25.3,22.8,29.92,SE,140,0.0,0.0,90,0.00,,---,0.00,0.00,VWS V14.01,2013-02-06 00:43:00,
2013-02-05 19:45:00,25.3,22.8,29.92,SE,140,0.0,0.0,90,0.00,,---,0.00,0.00,VWS V14.01,2013-02-06 00:45:00,
2013-02-05 19:46:00,25.3,22.8,29.92,SE,140,0.0,0.0,90,0.00,,---,0.00,0.00,VWS V14.01,2013-02-06 00:46:00,
2013-02-05 19:48:00,25.3,22.8,29.92,SE,140,0.0,0.0,90,0.00,,---,0.00,0.00,VWS V14.01,2013-02-06 00:48:00,
2013-02-05 19:50:00,25.3,22.8,29.92,SE,140,0.0,0.0,90,0.00,,---,0.00,0.00,VWS V14.01,2013-02-06 00:50:00,
2013-02-05 19:51:00,25.3,22.8,29.92,SE,140,0.0,0.0,90,0.00,,---,0.00,0.00,VWS V14.01,2013-02-06 00:51:00,
2013-02-05 19:53:00,25.3,22.8,29.92,SE,140,0.0,0.0,90,0.00,,---,0.00,0.00,VWS V14.01,2013-02-06 00:53:00,
2013-02-05 19:55:00,25.3,22.8,29.92,SE,140,0.0,0.0,90,0.00,,---,0.00,0.00,VWS V14.01,2013-02-06 00:55:00,
2013-02-05 19:56:00,25.3,22.8,29.92,SE,140,0.0,0.0,90,0.00,,---,0.00,0.00,VWS V14.01,2013-02-06 00:56:00,
2013-02-05 19:59:00,25.3,22.8,29.92,SE,140,0.0,0.0,90,0.00,,---,0.00,0.00,VWS V14.01,2013-02-06 00:59:00,
2013-02-05 20:00:00,25.3,22.8,29.92,SE,140,0.0,0.0,90,0.00,,---,0.00,0.00,VWS V14.01,2013-02-06 01:00:00,
2013-02-05 20:01:00,25.3,22.8,29.92,SE,140,0.0,0.0,90,0.00,,---,0.00,0.00,VWS V14.01,2013-02-06 01:01:00,
2013-02-05 20:02:00,25.3,22.8,29.92,SE,140,0.0,0.0,90,0.00,,---,0.00,0.00,VWS V14.01,2013-02-06 01:02:00,
2013-02-05 20:04:00,25.3,22.8,29.91,SE,140,0.0,0.0,90,0.00,,---,0.00,0.00,VWS V14.01,2013-02-06 01:04:00,
2013-02-05 20:05:00,25.3,22.8,29.91,SE,140,0.0,0.0,90,0.00,,---,0.00,0.00,VWS V14.01,2013-02-06 01:05:00,
2013-02-05 20:06:00,25.3,22.8,29.91,SE,140,0.0,0.0,90,0.00,,---,0.00,0.00,VWS V14.01,2013-02-06 01:06:00,
2013-02-05 20:07:00,25.3,22.8,29.91,SE,140,0.0,0.0,90,0.00,,---,0.00,0.00,VWS V14.01,2013-02-06 01:07:00,
2013-02-05 20:09:00,25.3,22.8,29.91,SE,140,0.0,0.0,90,0.00,,---,0.00,0.00,VWS V14.01,2013-02-06 01:09:00,
2013-02-05 20:10:00,25.3,22.8,29.91,SE,140,0.0,0.0,90,0.00,,---,0.00,0.00,VWS V14.01,2013-02-06 01:10:00,
2013-02-05 20:11:00,25.3,22.8,29.91,SE,140,0.0,0.0,90,0.00,,---,0.00,0.00,VWS V14.01,2013-02-06 01:11:00,
2013-02-05 20:12:00,25.3,22.8,29.91,SE,140,0.0,0.0,90,0.00,,---,0.00,0.00,VWS V14.01,2013-02-06 01:12:00,
2013-02-05 20:14:00,25.3,22.8,29.91,SE,140,0.0,0.0,90,0.00,,---,0.00,0.00,VWS V14.01,2013-02-06 01:14:00,
2013-02-05 20:15:00,25.2,22.7,29.91,SE,140,0.0,0.0,90,0.00,,---,0.00,0.00,VWS V14.01,2013-02-06 01:15:00,
2013-02-05 20:16:00,25.3,22.8,29.91,SE,140,0.0,0.0,90,0.00,,---,0.00,0.00,VWS V14.01,2013-02-06 01:16:00,
2013-02-05 20:17:00,25.3,22.8,29.91,SE,140,0.0,0.0,90,0.00,,---,0.00,0.00,VWS V14.01,2013-02-06 01:17:00,
2013-02-05 20:19:00,25.2,22.7,29.91,SE,140,0.0,0.0,90,0.00,,---,0.00,0.00,VWS V14.01,2013-02-06 01:19:00,
2013-02-05 20:20:00,25.2,22.7,29.91,SE,140,0.0,0.0,90,0.00,,---,0.00,0.00,VWS V14.01,2013-02-06 01:20:00,
2013-02-05 20:22:00,25.2,22.7,29.91,SE,140,0.0,0.0,90,0.00,,---,0.00,0.00,VWS V14.01,2013-02-06 01:22:00,
2013-02-05 20:23:00,25.2,22.7,29.91,SE,140,0.0,0.0,90,0.00,,---,0.00,0.00,VWS V14.01,2013-02-06 01:23:00,
2013-02-05 20:24:00,25.2,22.7,29.92,SE,140,0.0,0.0,90,0.00,,---,0.00,0.00,VWS V14.01,2013-02-06 01:24:00,
2013-02-05 20:25:00,25.2,22.7,29.91,SE,140,0.0,0.0,90,0.00,,---,0.00,0.00,VWS V14.01,2013-02-06 01:25:00,
2013-02-05 20:27:00,25.2,22.7,29.92,SE,140,0.0,0.0,90,0.00,,---,0.00,0.00,VWS V14.01,2013-02-06 01:27:00,
2013-02-05 20:28:00,25.2,22.7,29.92,SE,140,0.0,0.0,90,0.00,,---,0.00,0.00,VWS V14.01,2013-02-06 01:28:00,
2013-02-05 20:29:00,25.2,22.7,29.92,NE,43,0.0,1.0,90,0.00,,---,0.00,0.00,VWS V14.01,2013-02-06 01:29:00,
2013-02-05 20:30:00,25.2,22.7,29.91,NE,43,0.0,1.0,90,0.00,,---,0.00,0.00,VWS V14.01,2013-02-06 01:30:00,
2013-02-05 20:32:00,25.2,22.7,29.92,NE,43,0.0,0.0,90,0.00,,---,0.00,0.00,VWS V14.01,2013-02-06 01:32:00,
2013-02-05 20:33:00,25.2,22.7,29.92,NE,43,0.0,0.0,90,0.00,,---,0.00,0.00,VWS V14.01,2013-02-06 01:33:00,
2013-02-05 20:34:00,25.2,22.7,29.91,NE,43,0.0,0.0,90,0.00,,---,0.00,0.00,VWS V14.01,2013-02-06 01:34:00,
2013-02-05 20:35:00,25.2,22.7,29.91,NE,43,0.0,0.0,90,0.00,,---,0.00,0.00,VWS V14.01,2013-02-06 01:35:00,
2013-02-05 20:37:00,25.2,22.7,29.91,NE,43,0.0,0.0,90,0.00,,---,0.00,0.00,VWS V14.01,2013-02-06 01:37:00,
2013-02-05 20:38:00,25.2,22.7,29.91,NE,43,0.0,0.0,90,0.00,,---,0.00,0.00,VWS V14.01,2013-02-06 01:38:00,
2013-02-05 20:40:00,25.2,22.7,29.91,NE,43,0.0,0.0,90,0.00,,---,0.00,0.00,VWS V14.01,2013-02-06 01:40:00,
2013-02-05 20:42:00,25.2,22.7,29.91,NE,43,0.0,0.0,90,0.00,,---,0.00,0.00,VWS V14.01,2013-02-06 01:42:00,
2013-02-05 20:43:00,25.2,22.7,29.91,NE,43,0.0,0.0,90,0.00,,---,0.00,0.00,VWS V14.01,2013-02-06 01:43:00,
2013-02-05 20:45:00,25.2,22.7,29.91,NE,43,0.0,0.0,90,0.00,,---,0.00,0.00,VWS V14.01,2013-02-06 01:45:00,
2013-02-05 20:47:00,25.2,22.7,29.91,NE,43,0.0,0.0,90,0.00,,---,0.00,0.00,VWS V14.01,2013-02-06 01:47:00,
2013-02-05 20:48:00,25.2,22.7,29.91,NE,43,0.0,0.0,90,0.00,,---,0.00,0.00,VWS V14.01,2013-02-06 01:48:00,
2013-02-05 20:50:00,25.2,22.7,29.91,NE,43,0.0,0.0,90,0.00,,---,0.00,0.00,VWS V14.01,2013-02-06 01:50:00,
2013-02-05 20:53:00,25.2,22.7,29.91,NE,43,0.0,0.0,90,0.00,,---,0.00,0.00,VWS V14.01,2013-02-06 01:53:00,
2013-02-05 20:55:00,25.2,22.7,29.91,NE,43,0.0,0.0,90,0.00,,---,0.00,0.00,VWS V14.01,2013-02-06 01:55:00,
2013-02-05 20:58:00,25.2,22.7,29.91,NE,43,0.0,0.0,90,0.00,,---,0.00,0.00,VWS V14.01,2013-02-06 01:58:00,
2013-02-05 21:00:00,25.2,22.7,29.91,NE,43,0.0,0.0,90,0.00,,---,0.00,0.00,VWS V14.01,2013-02-06 02:00:00,
2013-02-05 21:03:00,25.2,22.7,29.91,NE,43,0.0,0.0,90,0.00,,---,0.00,0.00,VWS V14.01,2013-02-06 02:03:00,
2013-02-05 21:05:00,25.2,22.7,29.91,NE,43,0.0,0.0,90,0.00,,---,0.00,0.00,VWS V14.01,2013-02-06 02:05:00,
2013-02-05 21:08:00,25.2,22.7,29.91,NE,43,0.0,0.0,90,0.00,,---,0.00,0.00,VWS V14.01,2013-02-06 02:08:00,
2013-02-05 21:10:00,25.2,22.7,29.92,NE,43,0.0,0.0,90,0.00,,---,0.00,0.00,VWS V14.01,2013-02-06 02:10:00,
2013-02-05 21:13:00,25.2,22.7,29.92,NE,43,0.0,0.0,90,0.00,,---,0.00,0.00,VWS V14.01,2013-02-06 02:13:00,
2013-02-05 21:15:00,25.2,22.7,29.91,NE,43,0.0,0.0,90,0.00,,---,0.00,0.00,VWS V14.01,2013-02-06 02:15:00,
2013-02-05 21:18:00,25.2,22.7,29.91,NE,43,0.0,0.0,90,0.00,,---,0.00,0.00,VWS V14.01,2013-02-06 02:18:00,
2013-02-05 21:19:00,25.2,22.7,29.91,NE,43,0.0,0.0,90,0.00,,---,0.00,0.00,VWS V14.01,2013-02-06 02:19:00,
2013-02-05 21:20:00,25.3,22.8,29.92,NE,43,0.0,0.0,90,0.00,,---,0.00,0.00,VWS V14.01,2013-02-06 02:20:00,
2013-02-05 21:23:00,25.3,22.8,29.92,NE,43,0.0,0.0,90,0.00,,---,0.00,0.00,VWS V14.01,2013-02-06 02:23:00,
2013-02-05 21:25:00,25.2,22.7,29.92,NE,43,0.0,0.0,90,0.00,,---,0.00,0.00,VWS V14.01,2013-02-06 02:25:00,
2013-02-05 21:28:00,25.3,22.8,29.92,NE,43,0.0,0.0,90,0.00,,---,0.00,0.00,VWS V14.01,2013-02-06 02:28:00,
2013-02-05 21:29:00,25.3,22.8,29.92,NE,43,0.0,0.0,90,0.00,,---,0.00,0.00,VWS V14.01,2013-02-06 02:29:00,
2013-02-05 21:31:00,25.3,22.8,29.92,NE,42,0.0,1.0,90,0.00,,---,0.00,0.00,VWS V14.01,2013-02-06 02:31:00,
2013-02-05 21:33:00,25.3,22.8,29.92,NE,42,0.0,0.0,90,0.00,,---,0.00,0.00,VWS V14.01,2013-02-06 02:33:00,
2013-02-05 21:34:00,25.3,22.8,29.92,NE,42,0.0,0.0,90,0.00,,---,0.00,0.00,VWS V14.01,2013-02-06 02:34:00,
2013-02-05 21:36:00,25.3,22.8,29.92,NE,42,0.0,0.0,90,0.00,,---,0.00,0.00,VWS V14.01,2013-02-06 02:36:00,
2013-02-05 21:39:00,25.3,22.8,29.92,NE,42,0.0,0.0,90,0.00,,---,0.00,0.00,VWS V14.01,2013-02-06 02:39:00,
2013-02-05 21:41:00,25.3,22.8,29.92,NE,42,0.0,0.0,90,0.00,,---,0.00,0.00,VWS V14.01,2013-02-06 02:41:00,
2013-02-05 21:44:00,25.3,22.8,29.92,NE,42,0.0,0.0,90,0.00,,---,0.00,0.00,VWS V14.01,2013-02-06 02:44:00,
2013-02-05 21:46:00,25.3,22.8,29.92,NE,42,0.0,1.0,90,0.00,,---,0.00,0.00,VWS V14.01,2013-02-06 02:46:00,
2013-02-05 21:49:00,25.3,22.8,29.92,NE,42,0.0,1.0,90,0.00,,---,0.00,0.00,VWS V14.01,2013-02-06 02:49:00,
2013-02-05 21:51:00,25.4,22.9,29.92,NE,42,0.0,1.0,90,0.00,,---,0.00,0.00,VWS V14.01,2013-02-06 02:51:00,
2013-02-05 21:54:00,25.4,22.9,29.92,NE,42,0.0,0.0,90,0.00,,---,0.00,0.00,VWS V14.01,2013-02-06 02:54:00,
2013-02-05 21:56:00,25.4,22.9,29.92,NE,42,0.0,0.0,90,0.00,,---,0.00,0.00,VWS V14.01,2013-02-06 02:56:00,
2013-02-05 21:59:00,25.4,22.9,29.92,NE,42,0.0,0.0,90,0.00,,---,0.00,0.00,VWS V14.01,2013-02-06 02:59:00,
2013-02-05 22:01:00,25.4,22.9,29.92,NE,42,0.0,0.0,90,0.00,,---,0.00,0.00,VWS V14.01,2013-02-06 03:01:00,
2013-02-05 22:04:00,25.4,22.9,29.92,NE,42,0.0,0.0,90,0.00,,---,0.00,0.00,VWS V14.01,2013-02-06 03:04:00,
2013-02-05 22:06:00,25.4,22.9,29.92,NE,42,0.0,0.0,90,0.00,,---,0.00,0.00,VWS V14.01,2013-02-06 03:06:00,
2013-02-05 22:09:00,25.4,22.9,29.92,NE,42,0.0,0.0,90,0.00,,---,0.00,0.00,VWS V14.01,2013-02-06 03:09:00,
2013-02-05 22:11:00,25.4,22.9,29.92,NE,42,0.0,0.0,90,0.00,,---,0.00,0.00,VWS V14.01,2013-02-06 03:11:00,
2013-02-05 22:14:00,25.4,22.9,29.92,NE,42,0.0,0.0,90,0.00,,---,0.00,0.00,VWS V14.01,2013-02-06 03:14:00,
2013-02-05 22:15:00,25.4,22.9,29.92,NE,42,0.0,0.0,90,0.00,,---,0.00,0.00,VWS V14.01,2013-02-06 03:15:00,
2013-02-05 22:16:00,25.5,23.0,29.92,NE,42,0.0,0.0,90,0.00,,---,0.00,0.00,VWS V14.01,2013-02-06 03:16:00,
2013-02-05 22:17:00,25.4,22.9,29.92,NE,42,0.0,0.0,90,0.00,,---,0.00,0.00,VWS V14.01,2013-02-06 03:17:00,
2013-02-05 22:20:00,25.5,23.0,29.92,NE,42,0.0,0.0,90,0.00,,---,0.00,0.00,VWS V14.01,2013-02-06 03:20:00,
2013-02-05 22:21:00,25.5,23.0,29.92,NE,42,0.0,0.0,90,0.00,,---,0.00,0.00,VWS V14.01,2013-02-06 03:21:00,
2013-02-05 22:22:00,25.5,23.0,29.92,NE,42,0.0,0.0,90,0.00,,---,0.00,0.00,VWS V14.01,2013-02-06 03:22:00,
2013-02-05 22:25:00,25.5,23.0,29.92,NE,42,0.0,0.0,90,0.00,,---,0.00,0.00,VWS V14.01,2013-02-06 03:25:00,
2013-02-05 22:26:00,25.5,23.0,29.92,NE,42,0.0,0.0,90,0.00,,---,0.00,0.00,VWS V14.01,2013-02-06 03:26:00,
2013-02-05 22:27:00,25.5,23.0,29.92,NE,42,0.0,0.0,90,0.00,,---,0.00,0.00,VWS V14.01,2013-02-06 03:27:00,
2013-02-05 22:30:00,25.5,23.0,29.93,NE,42,0.0,0.0,90,0.00,,---,0.00,0.00,VWS V14.01,2013-02-06 03:30:00,
2013-02-05 22:31:00,25.5,23.0,29.92,NE,42,0.0,0.0,90,0.00,,---,0.00,0.00,VWS V14.01,2013-02-06 03:31:00,
2013-02-05 22:32:00,25.5,23.0,29.92,NE,42,0.0,0.0,90,0.00,,---,0.00,0.00,VWS V14.01,2013-02-06 03:32:00,
2013-02-05 22:35:00,25.5,23.0,29.92,NE,42,0.0,0.0,90,0.00,,---,0.00,0.00,VWS V14.01,2013-02-06 03:35:00,
2013-02-05 22:36:00,25.6,23.1,29.92,NE,42,0.0,0.0,90,0.00,,---,0.00,0.00,VWS V14.01,2013-02-06 03:36:00,
2013-02-05 22:37:00,25.5,23.0,29.92,NE,42,0.0,0.0,90,0.00,,---,0.00,0.00,VWS V14.01,2013-02-06 03:37:00,
2013-02-05 22:40:00,25.6,23.1,29.92,NE,42,0.0,0.0,90,0.00,,---,0.00,0.00,VWS V14.01,2013-02-06 03:40:00,
2013-02-05 22:41:00,25.5,23.0,29.92,NE,42,0.0,0.0,90,0.00,,---,0.00,0.00,VWS V14.01,2013-02-06 03:41:00,
2013-02-05 22:42:00,25.6,23.1,29.92,NE,42,0.0,0.0,90,0.00,,---,0.00,0.00,VWS V14.01,2013-02-06 03:42:00,
2013-02-05 22:45:00,25.6,23.1,29.92,NE,42,0.0,0.0,90,0.00,,---,0.00,0.00,VWS V14.01,2013-02-06 03:45:00,
2013-02-05 22:46:00,25.6,23.1,29.92,NE,42,0.0,0.0,90,0.00,,---,0.00,0.00,VWS V14.01,2013-02-06 03:46:00,
2013-02-05 22:47:00,25.6,23.1,29.92,NE,42,0.0,0.0,90,0.00,,---,0.00,0.00,VWS V14.01,2013-02-06 03:47:00,
2013-02-05 22:50:00,25.6,23.1,29.92,NE,42,0.0,0.0,90,0.00,,---,0.00,0.00,VWS V14.01,2013-02-06 03:50:00,
2013-02-05 22:51:00,25.6,23.1,29.92,NE,42,0.0,0.0,90,0.00,,---,0.00,0.00,VWS V14.01,2013-02-06 03:51:00,
2013-02-05 22:52:00,25.6,23.1,29.92,NE,42,0.0,0.0,90,0.00,,---,0.00,0.00,VWS V14.01,2013-02-06 03:52:00,
2013-02-05 22:55:00,25.6,23.1,29.92,NE,42,0.0,0.0,90,0.00,,---,0.00,0.00,VWS V14.01,2013-02-06 03:55:00,
2013-02-05 22:56:00,25.6,23.1,29.92,NE,42,0.0,0.0,90,0.00,,---,0.00,0.00,VWS V14.01,2013-02-06 03:56:00,
2013-02-05 22:57:00,25.6,23.1,29.92,NE,42,0.0,0.0,90,0.00,,---,0.00,0.00,VWS V14.01,2013-02-06 03:57:00,
2013-02-05 23:00:00,25.6,23.1,29.92,NE,42,0.0,0.0,90,0.00,,---,0.00,0.00,VWS V14.01,2013-02-06 04:00:00,
2013-02-05 23:01:00,25.7,23.2,29.92,NE,42,0.0,0.0,90,0.00,,---,0.00,0.00,VWS V14.01,2013-02-06 04:01:00,
2013-02-05 23:02:00,25.6,23.1,29.92,NE,42,0.0,0.0,90,0.00,,---,0.00,0.00,VWS V14.01,2013-02-06 04:02:00,
2013-02-05 23:05:00,25.6,23.1,29.92,NE,42,0.0,0.0,90,0.00,,---,0.00,0.00,VWS V14.01,2013-02-06 04:05:00,
2013-02-05 23:06:00,25.7,23.2,29.92,NE,42,0.0,0.0,90,0.00,,---,0.00,0.00,VWS V14.01,2013-02-06 04:06:00,
2013-02-05 23:07:00,25.7,23.2,29.92,NE,42,0.0,0.0,90,0.00,,---,0.00,0.00,VWS V14.01,2013-02-06 04:07:00,
2013-02-05 23:10:00,25.7,23.2,29.92,NE,42,0.0,0.0,90,0.00,,---,0.00,0.00,VWS V14.01,2013-02-06 04:10:00,
2013-02-05 23:11:00,25.7,23.2,29.92,NE,42,0.0,0.0,90,0.00,,---,0.00,0.00,VWS V14.01,2013-02-06 04:11:00,
2013-02-05 23:13:00,25.7,23.2,29.92,NE,42,0.0,0.0,90,0.00,,---,0.00,0.00,VWS V14.01,2013-02-06 04:13:00,
2013-02-05 23:15:00,25.7,23.2,29.92,NE,42,0.0,0.0,90,0.00,,---,0.00,0.00,VWS V14.01,2013-02-06 04:15:00,
2013-02-05 23:16:00,25.7,23.2,29.92,NE,42,0.0,0.0,90,0.00,,---,0.00,0.00,VWS V14.01,2013-02-06 04:16:00,
2013-02-05 23:18:00,25.7,23.2,29.92,NE,42,0.0,0.0,90,0.00,,---,0.00,0.00,VWS V14.01,2013-02-06 04:18:00,
2013-02-05 23:20:00,25.7,23.2,29.93,NE,42,0.0,0.0,90,0.00,,---,0.00,0.00,VWS V14.01,2013-02-06 04:20:00,
2013-02-05 23:21:00,25.7,23.2,29.93,NE,42,0.0,0.0,90,0.00,,---,0.00,0.00,VWS V14.01,2013-02-06 04:21:00,
2013-02-05 23:23:00,25.7,23.2,29.93,NE,42,0.0,0.0,90,0.00,,---,0.00,0.00,VWS V14.01,2013-02-06 04:23:00,
2013-02-05 23:26:00,25.8,23.3,29.93,NE,42,0.0,0.0,90,0.00,,---,0.00,0.00,VWS V14.01,2013-02-06 04:26:00,
2013-02-05 23:28:00,25.7,23.2,29.93,NE,42,0.0,0.0,90,0.00,,---,0.00,0.00,VWS V14.01,2013-02-06 04:28:00,
2013-02-05 23:31:00,25.8,23.3,29.92,NE,42,0.0,0.0,90,0.00,,---,0.00,0.00,VWS V14.01,2013-02-06 04:31:00,
2013-02-05 23:32:00,25.8,23.3,29.92,NE,42,0.0,0.0,90,0.00,,---,0.00,0.00,VWS V14.01,2013-02-06 04:32:00,
2013-02-05 23:33:00,25.8,23.3,29.92,NE,42,0.0,0.0,90,0.00,,---,0.00,0.00,VWS V14.01,2013-02-06 04:33:00,
2013-02-05 23:36:00,25.8,23.3,29.92,NE,42,0.0,0.0,90,0.00,,---,0.00,0.00,VWS V14.01,2013-02-06 04:36:00,
2013-02-05 23:37:00,25.8,23.3,29.92,NE,42,0.0,0.0,90,0.00,,---,0.00,0.00,VWS V14.01,2013-02-06 04:37:00,
2013-02-05 23:38:00,25.8,23.3,29.93,NE,42,0.0,0.0,90,0.00,,---,0.00,0.00,VWS V14.01,2013-02-06 04:38:00,
2013-02-05 23:41:00,25.8,23.3,29.92,NE,42,0.0,0.0,90,0.00,,---,0.00,0.00,VWS V14.01,2013-02-06 04:41:00,
2013-02-05 23:42:00,25.8,23.3,29.92,NE,42,0.0,0.0,90,0.00,,---,0.00,0.00,VWS V14.01,2013-02-06 04:42:00,
2013-02-05 23:44:00,25.8,23.3,29.92,NE,42,0.0,0.0,90,0.00,,---,0.00,0.00,VWS V14.01,2013-02-06 04:44:00,
2013-02-05 23:46:00,25.8,23.3,29.92,NE,42,0.0,0.0,90,0.00,,---,0.00,0.00,VWS V14.01,2013-02-06 04:46:00,
2013-02-05 23:47:00,25.8,23.3,29.92,NE,42,0.0,0.0,90,0.00,,---,0.00,0.00,VWS V14.01,2013-02-06 04:47:00,
2013-02-05 23:49:00,25.8,23.3,29.92,NE,42,0.0,0.0,90,0.00,,---,0.00,0.00,VWS V14.01,2013-02-06 04:49:00,
2013-02-05 23:51:00,25.8,23.3,29.92,NE,42,0.0,0.0,90,0.00,,---,0.00,0.00,VWS V14.01,2013-02-06 04:51:00,
2013-02-05 23:52:00,25.8,23.3,29.92,NE,42,0.0,0.0,90,0.00,,---,0.00,0.00,VWS V14.01,2013-02-06 04:52:00,
2013-02-05 23:54:00,25.8,23.3,29.92,NE,42,0.0,0.0,90,0.00,,---,0.00,0.00,VWS V14.01,2013-02-06 04:54:00,
2013-02-05 23:56:00,25.8,23.5,29.92,NE,42,0.0,0.0,91,0.00,,---,0.00,0.00,VWS V14.01,2013-02-06 04:56:00,
2013-02-05 23:57:00,25.8,23.5,29.92,NE,42,0.0,0.0,91,0.00,,---,0.00,0.00,VWS V14.01,2013-02-06 04:57:00,
2013-02-05 23:59:00,25.8,23.5,29.92,NE,42,0.0,0.0,91,0.00,,---,0.00,0.00,VWS V14.01,2013-02-06 04:59:00,